PWSweather.com
Personal Weather Stations
Station Observations
KILASHKU1
Ashkum, IL

Ashkum, IL

Lat: 40.8779862, Lon: -87.846552

Elevation: 626

Station Type: Davis Vantage Pro 2

High Low Average
Temperature 72.7°F22.6°C 63.0°F17.2°C 65.9°F18.8°C
Dew Point 69.5°F20.8°C 60.6°F15.9°C 63.7°F17.6°C
Winds 8.0 mph 12.9 kmh Calm Calm 3.0 mph SE4.8 kmh SE
Wind Gusts 15.0 mph24.1 kmh 1.0 mph1.6 kmh 8.0 mph12.9 kmh
Humidity 95% 86% 93%
Pressure 30.15 in1021.0 mb 29.82 in1009.8 mb -
Precipitation 2.07 in52.6 mm - -
Hour Temp Dew Point Humidity Winds Wind Gusts Pressure Precip Precip Rate Daily Precip Total
12:00 AM 65.7°F18.7°C 64.2°F17.9°C 95% 3.0 mph WSW4.8 kmh WSW 9.0 mph14.5 kmh 29.84 in1010.5 mb 0.00 in0.0 mm 0.00 in0.0 mm 0.00 in0.0 mm
12:02 AM 65.7°F18.7°C 64.2°F17.9°C 95% 3.0 mph SW4.8 kmh SW 9.0 mph14.5 kmh 29.84 in1010.5 mb 0.00 in0.0 mm 0.00 in0.0 mm 0.00 in0.0 mm
12:04 AM 65.6°F18.7°C 64.1°F17.8°C 95% 3.0 mph SW4.8 kmh SW 9.0 mph14.5 kmh 29.84 in1010.5 mb 0.00 in0.0 mm 0.00 in0.0 mm 0.00 in0.0 mm
12:06 AM 65.7°F18.7°C 64.2°F17.9°C 95% 3.0 mph SSW4.8 kmh SSW 9.0 mph14.5 kmh 29.84 in1010.5 mb 0.00 in0.0 mm 0.00 in0.0 mm 0.00 in0.0 mm
12:08 AM 65.7°F18.7°C 64.2°F17.9°C 95% 4.0 mph S6.4 kmh S 9.0 mph14.5 kmh 29.84 in1010.5 mb 0.00 in0.0 mm 0.00 in0.0 mm 0.00 in0.0 mm
12:10 AM 65.7°F18.7°C 64.2°F17.9°C 95% 4.0 mph S6.4 kmh S 9.0 mph14.5 kmh 29.84 in1010.5 mb 0.00 in0.0 mm 0.00 in0.0 mm 0.00 in0.0 mm
12:12 AM 65.7°F18.7°C 64.2°F17.9°C 95% 4.0 mph S6.4 kmh S 9.0 mph14.5 kmh 29.84 in1010.5 mb 0.00 in0.0 mm 0.00 in0.0 mm 0.00 in0.0 mm
12:14 AM 65.7°F18.7°C 64.2°F17.9°C 95% 4.0 mph S6.4 kmh S 9.0 mph14.5 kmh 29.84 in1010.5 mb 0.00 in0.0 mm 0.00 in0.0 mm 0.00 in0.0 mm
12:16 AM 65.7°F18.7°C 64.2°F17.9°C 95% 4.0 mph S6.4 kmh S 9.0 mph14.5 kmh 29.85 in1010.8 mb 0.00 in0.0 mm 0.00 in0.0 mm 0.00 in0.0 mm
12:18 AM 65.6°F18.7°C 64.1°F17.8°C 95% 3.0 mph S4.8 kmh S 7.0 mph11.3 kmh 29.84 in1010.5 mb 0.00 in0.0 mm 0.00 in0.0 mm 0.00 in0.0 mm
12:20 AM 65.6°F18.7°C 64.1°F17.8°C 95% 4.0 mph S6.4 kmh S 8.0 mph12.9 kmh 29.85 in1010.8 mb 0.00 in0.0 mm 0.00 in0.0 mm 0.00 in0.0 mm
12:22 AM 65.7°F18.7°C 64.2°F17.9°C 95% 4.0 mph S6.4 kmh S 8.0 mph12.9 kmh 29.85 in1010.8 mb 0.00 in0.0 mm 0.00 in0.0 mm 0.00 in0.0 mm
12:24 AM 65.6°F18.7°C 64.1°F17.8°C 95% 4.0 mph S6.4 kmh S 8.0 mph12.9 kmh 29.86 in1011.2 mb 0.00 in0.0 mm 0.00 in0.0 mm 0.00 in0.0 mm
12:26 AM 65.6°F18.7°C 64.1°F17.8°C 95% 4.0 mph S6.4 kmh S 8.0 mph12.9 kmh 29.86 in1011.2 mb 0.00 in0.0 mm 0.00 in0.0 mm 0.00 in0.0 mm
12:28 AM 65.5°F18.6°C 64.0°F17.8°C 95% 4.0 mph S6.4 kmh S 9.0 mph14.5 kmh 29.86 in1011.2 mb 0.00 in0.0 mm 0.00 in0.0 mm 0.00 in0.0 mm
12:30 AM 65.5°F18.6°C 64.0°F17.8°C 95% 4.0 mph S6.4 kmh S 9.0 mph14.5 kmh 29.86 in1011.2 mb 0.00 in0.0 mm 0.00 in0.0 mm 0.00 in0.0 mm
12:32 AM 65.4°F18.6°C 63.9°F17.7°C 95% 5.0 mph S8.0 kmh S 9.0 mph14.5 kmh 29.87 in1011.5 mb 0.00 in0.0 mm 0.00 in0.0 mm 0.00 in0.0 mm
12:34 AM 65.4°F18.6°C 63.9°F17.7°C 95% 5.0 mph S8.0 kmh S 10.0 mph16.1 kmh 29.88 in1011.9 mb 0.00 in0.0 mm 0.00 in0.0 mm 0.00 in0.0 mm
12:36 AM 65.4°F18.6°C 63.9°F17.7°C 95% 5.0 mph S8.0 kmh S 11.0 mph17.7 kmh 29.88 in1011.9 mb 0.00 in0.0 mm 0.00 in0.0 mm 0.00 in0.0 mm
12:38 AM 65.4°F18.6°C 63.9°F17.7°C 95% 5.0 mph S8.0 kmh S 11.0 mph17.7 kmh 29.88 in1011.9 mb 0.00 in0.0 mm 0.00 in0.0 mm 0.00 in0.0 mm
12:40 AM 65.4°F18.6°C 63.9°F17.7°C 95% 6.0 mph S9.7 kmh S 11.0 mph17.7 kmh 29.88 in1011.9 mb 0.00 in0.0 mm 0.00 in0.0 mm 0.00 in0.0 mm
12:42 AM 65.4°F18.6°C 63.9°F17.7°C 95% 6.0 mph S9.7 kmh S 11.0 mph17.7 kmh 29.87 in1011.5 mb 0.00 in0.0 mm 0.00 in0.0 mm 0.00 in0.0 mm
12:44 AM 65.3°F18.5°C 63.8°F17.7°C 95% 5.0 mph S8.0 kmh S 11.0 mph17.7 kmh 29.87 in1011.5 mb 0.00 in0.0 mm 0.00 in0.0 mm 0.00 in0.0 mm
12:46 AM 65.3°F18.5°C 63.8°F17.7°C 95% 4.0 mph S6.4 kmh S 10.0 mph16.1 kmh 29.86 in1011.2 mb 0.00 in0.0 mm 0.00 in0.0 mm 0.00 in0.0 mm
12:48 AM 65.3°F18.5°C 63.8°F17.7°C 95% 3.0 mph SSE4.8 kmh SSE 9.0 mph14.5 kmh 29.86 in1011.2 mb 0.00 in0.0 mm 0.00 in0.0 mm 0.00 in0.0 mm
12:50 AM 65.2°F18.4°C 63.7°F17.6°C 95% 3.0 mph S4.8 kmh S 9.0 mph14.5 kmh 29.86 in1011.2 mb 0.00 in0.0 mm 0.00 in0.0 mm 0.00 in0.0 mm
12:52 AM 65.2°F18.4°C 63.7°F17.6°C 95% 2.0 mph S3.2 kmh S 5.0 mph8.0 kmh 29.86 in1011.2 mb 0.00 in0.0 mm 0.00 in0.0 mm 0.00 in0.0 mm
12:54 AM 65.2°F18.4°C 63.7°F17.6°C 95% 1.0 mph SSE1.6 kmh SSE 4.0 mph6.4 kmh 29.85 in1010.8 mb 0.00 in0.0 mm 0.00 in0.0 mm 0.00 in0.0 mm
12:56 AM 65.2°F18.4°C 63.7°F17.6°C 95% 1.0 mph SSE1.6 kmh SSE 4.0 mph6.4 kmh 29.85 in1010.8 mb 0.00 in0.0 mm 0.00 in0.0 mm 0.00 in0.0 mm
12:58 AM 65.1°F18.4°C 63.6°F17.6°C 95% 1.0 mph SSE1.6 kmh SSE 4.0 mph6.4 kmh 29.86 in1011.2 mb 0.00 in0.0 mm 0.00 in0.0 mm 0.00 in0.0 mm
01:00 AM 65.1°F18.4°C 63.6°F17.6°C 95% 2.0 mph SSE3.2 kmh SSE 4.0 mph6.4 kmh 29.86 in1011.2 mb 0.00 in0.0 mm 0.00 in0.0 mm 0.00 in0.0 mm
01:02 AM 65.1°F18.4°C 63.6°F17.6°C 95% 2.0 mph SSE3.2 kmh SSE 8.0 mph12.9 kmh 29.86 in1011.2 mb 0.00 in0.0 mm 0.00 in0.0 mm 0.00 in0.0 mm
01:04 AM 65.0°F18.3°C 63.5°F17.5°C 95% 2.0 mph S3.2 kmh S 8.0 mph12.9 kmh 29.86 in1011.2 mb 0.00 in0.0 mm 0.00 in0.0 mm 0.00 in0.0 mm
01:06 AM 65.0°F18.3°C 63.5°F17.5°C 95% 2.0 mph S3.2 kmh S 8.0 mph12.9 kmh 29.86 in1011.2 mb 0.00 in0.0 mm 0.00 in0.0 mm 0.00 in0.0 mm
01:08 AM 65.0°F18.3°C 63.5°F17.5°C 95% 3.0 mph S4.8 kmh S 8.0 mph12.9 kmh 29.86 in1011.2 mb 0.00 in0.0 mm 0.00 in0.0 mm 0.00 in0.0 mm
01:10 AM 65.0°F18.3°C 63.5°F17.5°C 95% 2.0 mph S3.2 kmh S 8.0 mph12.9 kmh 29.86 in1011.2 mb 0.00 in0.0 mm 0.00 in0.0 mm 0.00 in0.0 mm
01:12 AM 64.9°F18.3°C 63.4°F17.4°C 95% 2.0 mph S3.2 kmh S 7.0 mph11.3 kmh 29.86 in1011.2 mb 0.00 in0.0 mm 0.00 in0.0 mm 0.00 in0.0 mm
01:14 AM 64.9°F18.3°C 63.4°F17.4°C 95% 2.0 mph S3.2 kmh S 7.0 mph11.3 kmh 29.86 in1011.2 mb 0.00 in0.0 mm 0.00 in0.0 mm 0.00 in0.0 mm
01:16 AM 64.9°F18.3°C 63.4°F17.4°C 95% 3.0 mph S4.8 kmh S 7.0 mph11.3 kmh 29.86 in1011.2 mb 0.00 in0.0 mm 0.00 in0.0 mm 0.00 in0.0 mm
01:18 AM 64.9°F18.3°C 63.4°F17.4°C 95% 2.0 mph S3.2 kmh S 7.0 mph11.3 kmh 29.86 in1011.2 mb 0.00 in0.0 mm 0.00 in0.0 mm 0.00 in0.0 mm
01:20 AM 64.9°F18.3°C 63.4°F17.4°C 95% 2.0 mph S3.2 kmh S 7.0 mph11.3 kmh 29.86 in1011.2 mb 0.00 in0.0 mm 0.00 in0.0 mm 0.00 in0.0 mm
01:22 AM 64.9°F18.3°C 63.4°F17.4°C 95% 2.0 mph S3.2 kmh S 7.0 mph11.3 kmh 29.85 in1010.8 mb 0.00 in0.0 mm 0.00 in0.0 mm 0.00 in0.0 mm
01:24 AM 64.9°F18.3°C 63.4°F17.4°C 95% 2.0 mph S3.2 kmh S 5.0 mph8.0 kmh 29.85 in1010.8 mb 0.00 in0.0 mm 0.00 in0.0 mm 0.00 in0.0 mm
01:26 AM 64.9°F18.3°C 63.4°F17.4°C 95% 1.0 mph S1.6 kmh S 4.0 mph6.4 kmh 29.85 in1010.8 mb 0.00 in0.0 mm 0.00 in0.0 mm 0.00 in0.0 mm
01:28 AM 64.9°F18.3°C 63.4°F17.4°C 95% 1.0 mph S1.6 kmh S 4.0 mph6.4 kmh 29.84 in1010.5 mb 0.00 in0.0 mm 0.00 in0.0 mm 0.00 in0.0 mm
01:30 AM 64.9°F18.3°C 63.4°F17.4°C 95% 1.0 mph S1.6 kmh S 4.0 mph6.4 kmh 29.84 in1010.5 mb 0.00 in0.0 mm 0.00 in0.0 mm 0.00 in0.0 mm
01:32 AM 64.9°F18.3°C 63.4°F17.4°C 95% 1.0 mph S1.6 kmh S 3.0 mph4.8 kmh 29.84 in1010.5 mb 0.00 in0.0 mm 0.00 in0.0 mm 0.00 in0.0 mm
01:34 AM 64.9°F18.3°C 63.4°F17.4°C 95% 1.0 mph S1.6 kmh S 3.0 mph4.8 kmh 29.84 in1010.5 mb 0.00 in0.0 mm 0.00 in0.0 mm 0.00 in0.0 mm
01:36 AM 64.8°F18.2°C 63.3°F17.4°C 95% 1.0 mph S1.6 kmh S 3.0 mph4.8 kmh 29.83 in1010.2 mb 0.00 in0.0 mm 0.00 in0.0 mm 0.00 in0.0 mm
01:38 AM 64.8°F18.2°C 63.3°F17.4°C 95% 1.0 mph S1.6 kmh S 3.0 mph4.8 kmh 29.83 in1010.2 mb 0.00 in0.0 mm 0.00 in0.0 mm 0.00 in0.0 mm
01:40 AM 64.8°F18.2°C 63.3°F17.4°C 95% Calm Calm 3.0 mph4.8 kmh 29.83 in1010.2 mb 0.00 in0.0 mm 0.00 in0.0 mm 0.00 in0.0 mm
01:42 AM 64.8°F18.2°C 63.3°F17.4°C 95% Calm Calm 3.0 mph4.8 kmh 29.83 in1010.2 mb 0.00 in0.0 mm 0.00 in0.0 mm 0.00 in0.0 mm
01:44 AM 64.8°F18.2°C 63.3°F17.4°C 95% Calm Calm 3.0 mph4.8 kmh 29.83 in1010.2 mb 0.00 in0.0 mm 0.00 in0.0 mm 0.00 in0.0 mm
01:46 AM 64.8°F18.2°C 63.3°F17.4°C 95% Calm Calm 3.0 mph4.8 kmh 29.83 in1010.2 mb 0.00 in0.0 mm 0.00 in0.0 mm 0.00 in0.0 mm
01:48 AM 64.8°F18.2°C 63.3°F17.4°C 95% 1.0 mph S1.6 kmh S 3.0 mph4.8 kmh 29.83 in1010.2 mb 0.00 in0.0 mm 0.00 in0.0 mm 0.00 in0.0 mm
01:50 AM 64.8°F18.2°C 63.3°F17.4°C 95% 1.0 mph S1.6 kmh S 3.0 mph4.8 kmh 29.83 in1010.2 mb 0.00 in0.0 mm 0.00 in0.0 mm 0.00 in0.0 mm
01:52 AM 64.8°F18.2°C 63.3°F17.4°C 95% 1.0 mph S1.6 kmh S 3.0 mph4.8 kmh 29.83 in1010.2 mb 0.00 in0.0 mm 0.00 in0.0 mm 0.00 in0.0 mm
01:54 AM 64.8°F18.2°C 63.3°F17.4°C 95% 1.0 mph S1.6 kmh S 6.0 mph9.7 kmh 29.83 in1010.2 mb 0.00 in0.0 mm 0.00 in0.0 mm 0.00 in0.0 mm
01:56 AM 64.8°F18.2°C 63.3°F17.4°C 95% 1.0 mph S1.6 kmh S 6.0 mph9.7 kmh 29.83 in1010.2 mb 0.00 in0.0 mm 0.00 in0.0 mm 0.00 in0.0 mm
01:58 AM 64.8°F18.2°C 63.3°F17.4°C 95% 1.0 mph S1.6 kmh S 6.0 mph9.7 kmh 29.83 in1010.2 mb 0.00 in0.0 mm 0.00 in0.0 mm 0.00 in0.0 mm
02:00 AM 64.8°F18.2°C 63.3°F17.4°C 95% 1.0 mph S1.6 kmh S 6.0 mph9.7 kmh 29.83 in1010.2 mb 0.00 in0.0 mm 0.00 in0.0 mm 0.00 in0.0 mm
02:02 AM 64.8°F18.2°C 63.3°F17.4°C 95% 1.0 mph S1.6 kmh S 6.0 mph9.7 kmh 29.84 in1010.5 mb 0.00 in0.0 mm 0.00 in0.0 mm 0.00 in0.0 mm
02:04 AM 64.8°F18.2°C 63.3°F17.4°C 95% 1.0 mph S1.6 kmh S 4.0 mph6.4 kmh 29.84 in1010.5 mb 0.00 in0.0 mm 0.00 in0.0 mm 0.00 in0.0 mm
02:06 AM 64.8°F18.2°C 63.3°F17.4°C 95% 1.0 mph S1.6 kmh S 3.0 mph4.8 kmh 29.84 in1010.5 mb 0.00 in0.0 mm 0.00 in0.0 mm 0.00 in0.0 mm
02:08 AM 64.7°F18.2°C 63.2°F17.3°C 95% 2.0 mph S3.2 kmh S 6.0 mph9.7 kmh 29.84 in1010.5 mb 0.00 in0.0 mm 0.00 in0.0 mm 0.00 in0.0 mm
02:10 AM 64.7°F18.2°C 63.2°F17.3°C 95% 2.0 mph S3.2 kmh S 6.0 mph9.7 kmh 29.84 in1010.5 mb 0.00 in0.0 mm 0.00 in0.0 mm 0.00 in0.0 mm
02:12 AM 64.6°F18.1°C 63.1°F17.3°C 95% 2.0 mph S3.2 kmh S 6.0 mph9.7 kmh 29.84 in1010.5 mb 0.00 in0.0 mm 0.00 in0.0 mm 0.00 in0.0 mm
02:14 AM 64.6°F18.1°C 63.1°F17.3°C 95% 3.0 mph S4.8 kmh S 6.0 mph9.7 kmh 29.84 in1010.5 mb 0.00 in0.0 mm 0.00 in0.0 mm 0.00 in0.0 mm
02:16 AM 64.6°F18.1°C 63.1°F17.3°C 95% 3.0 mph S4.8 kmh S 8.0 mph12.9 kmh 29.84 in1010.5 mb 0.00 in0.0 mm 0.00 in0.0 mm 0.00 in0.0 mm
02:18 AM 64.6°F18.1°C 63.1°F17.3°C 95% 4.0 mph S6.4 kmh S 8.0 mph12.9 kmh 29.84 in1010.5 mb 0.00 in0.0 mm 0.00 in0.0 mm 0.00 in0.0 mm
02:20 AM 64.7°F18.2°C 63.2°F17.3°C 95% 4.0 mph S6.4 kmh S 8.0 mph12.9 kmh 29.84 in1010.5 mb 0.00 in0.0 mm 0.00 in0.0 mm 0.00 in0.0 mm
02:22 AM 64.6°F18.1°C 63.1°F17.3°C 95% 4.0 mph S6.4 kmh S 8.0 mph12.9 kmh 29.84 in1010.5 mb 0.00 in0.0 mm 0.00 in0.0 mm 0.00 in0.0 mm
02:24 AM 64.7°F18.2°C 63.2°F17.3°C 95% 4.0 mph S6.4 kmh S 8.0 mph12.9 kmh 29.84 in1010.5 mb 0.00 in0.0 mm 0.00 in0.0 mm 0.00 in0.0 mm
02:26 AM 64.7°F18.2°C 63.2°F17.3°C 95% 4.0 mph S6.4 kmh S 9.0 mph14.5 kmh 29.84 in1010.5 mb 0.00 in0.0 mm 0.00 in0.0 mm 0.00 in0.0 mm
02:28 AM 64.7°F18.2°C 63.2°F17.3°C 95% 4.0 mph S6.4 kmh S 9.0 mph14.5 kmh 29.84 in1010.5 mb 0.00 in0.0 mm 0.00 in0.0 mm 0.00 in0.0 mm
02:30 AM 64.7°F18.2°C 63.2°F17.3°C 95% 4.0 mph S6.4 kmh S 9.0 mph14.5 kmh 29.84 in1010.5 mb 0.00 in0.0 mm 0.00 in0.0 mm 0.00 in0.0 mm
02:32 AM 64.7°F18.2°C 63.2°F17.3°C 95% 4.0 mph S6.4 kmh S 9.0 mph14.5 kmh 29.83 in1010.2 mb 0.00 in0.0 mm 0.00 in0.0 mm 0.00 in0.0 mm
02:34 AM 64.7°F18.2°C 63.2°F17.3°C 95% 4.0 mph S6.4 kmh S 9.0 mph14.5 kmh 29.83 in1010.2 mb 0.00 in0.0 mm 0.00 in0.0 mm 0.00 in0.0 mm
02:36 AM 64.7°F18.2°C 63.2°F17.3°C 95% 4.0 mph S6.4 kmh S 9.0 mph14.5 kmh 29.83 in1010.2 mb 0.00 in0.0 mm 0.00 in0.0 mm 0.00 in0.0 mm
02:38 AM 64.8°F18.2°C 63.3°F17.4°C 95% 4.0 mph S6.4 kmh S 9.0 mph14.5 kmh 29.82 in1009.8 mb 0.00 in0.0 mm 0.00 in0.0 mm 0.00 in0.0 mm
02:40 AM 64.7°F18.2°C 63.2°F17.3°C 95% 4.0 mph S6.4 kmh S 9.0 mph14.5 kmh 29.83 in1010.2 mb 0.00 in0.0 mm 0.00 in0.0 mm 0.00 in0.0 mm
02:42 AM 64.7°F18.2°C 63.2°F17.3°C 95% 4.0 mph S6.4 kmh S 9.0 mph14.5 kmh 29.83 in1010.2 mb 0.00 in0.0 mm 0.00 in0.0 mm 0.00 in0.0 mm
02:44 AM 64.7°F18.2°C 63.2°F17.3°C 95% 4.0 mph S6.4 kmh S 12.0 mph19.3 kmh 29.83 in1010.2 mb 0.00 in0.0 mm 0.00 in0.0 mm 0.00 in0.0 mm
02:46 AM 64.7°F18.2°C 63.2°F17.3°C 95% 4.0 mph S6.4 kmh S 12.0 mph19.3 kmh 29.83 in1010.2 mb 0.00 in0.0 mm 0.00 in0.0 mm 0.00 in0.0 mm
02:48 AM 64.7°F18.2°C 63.2°F17.3°C 95% 5.0 mph S8.0 kmh S 13.0 mph20.9 kmh 29.83 in1010.2 mb 0.00 in0.0 mm 0.00 in0.0 mm 0.00 in0.0 mm
02:50 AM 64.7°F18.2°C 63.2°F17.3°C 95% 5.0 mph S8.0 kmh S 15.0 mph24.1 kmh 29.83 in1010.2 mb 0.00 in0.0 mm 0.00 in0.0 mm 0.00 in0.0 mm
02:52 AM 64.7°F18.2°C 63.2°F17.3°C 95% 6.0 mph S9.7 kmh S 15.0 mph24.1 kmh 29.84 in1010.5 mb 0.00 in0.0 mm 0.00 in0.0 mm 0.00 in0.0 mm
02:54 AM 64.7°F18.2°C 63.2°F17.3°C 95% 7.0 mph S11.3 kmh S 15.0 mph24.1 kmh 29.84 in1010.5 mb 0.00 in0.0 mm 0.00 in0.0 mm 0.00 in0.0 mm
02:56 AM 64.7°F18.2°C 63.2°F17.3°C 95% 7.0 mph S11.3 kmh S 15.0 mph24.1 kmh 29.84 in1010.5 mb 0.00 in0.0 mm 0.00 in0.0 mm 0.00 in0.0 mm
02:58 AM 64.7°F18.2°C 63.2°F17.3°C 95% 7.0 mph S11.3 kmh S 15.0 mph24.1 kmh 29.84 in1010.5 mb 0.00 in0.0 mm 0.00 in0.0 mm 0.00 in0.0 mm
03:00 AM 64.7°F18.2°C 63.2°F17.3°C 95% 7.0 mph S11.3 kmh S 14.0 mph22.5 kmh 29.84 in1010.5 mb 0.00 in0.0 mm 0.00 in0.0 mm 0.00 in0.0 mm
03:02 AM 64.7°F18.2°C 63.2°F17.3°C 95% 7.0 mph S11.3 kmh S 12.0 mph19.3 kmh 29.84 in1010.5 mb 0.00 in0.0 mm 0.00 in0.0 mm 0.00 in0.0 mm
03:04 AM 64.8°F18.2°C 63.3°F17.4°C 95% 6.0 mph S9.7 kmh S 12.0 mph19.3 kmh 29.85 in1010.8 mb 0.00 in0.0 mm 0.00 in0.0 mm 0.00 in0.0 mm
03:06 AM 64.8°F18.2°C 63.3°F17.4°C 95% 7.0 mph S11.3 kmh S 13.0 mph20.9 kmh 29.87 in1011.5 mb 0.00 in0.0 mm 0.00 in0.0 mm 0.00 in0.0 mm
03:08 AM 64.8°F18.2°C 63.3°F17.4°C 95% 7.0 mph S11.3 kmh S 13.0 mph20.9 kmh 29.88 in1011.9 mb 0.00 in0.0 mm 0.00 in0.0 mm 0.00 in0.0 mm
03:10 AM 64.8°F18.2°C 63.3°F17.4°C 95% 7.0 mph S11.3 kmh S 13.0 mph20.9 kmh 29.89 in1012.2 mb 0.00 in0.0 mm 0.00 in0.0 mm 0.00 in0.0 mm
03:12 AM 64.9°F18.3°C 63.4°F17.4°C 95% 7.0 mph S11.3 kmh S 13.0 mph20.9 kmh 29.89 in1012.2 mb 0.00 in0.0 mm 0.00 in0.0 mm 0.00 in0.0 mm
03:14 AM 64.9°F18.3°C 63.4°F17.4°C 95% 7.0 mph S11.3 kmh S 13.0 mph20.9 kmh 29.89 in1012.2 mb 0.00 in0.0 mm 0.00 in0.0 mm 0.00 in0.0 mm
03:16 AM 64.9°F18.3°C 63.4°F17.4°C 95% 6.0 mph S9.7 kmh S 12.0 mph19.3 kmh 29.89 in1012.2 mb 0.00 in0.0 mm 0.00 in0.0 mm 0.00 in0.0 mm
03:18 AM 64.9°F18.3°C 63.4°F17.4°C 95% 5.0 mph S8.0 kmh S 12.0 mph19.3 kmh 29.89 in1012.2 mb 0.00 in0.0 mm 0.00 in0.0 mm 0.00 in0.0 mm
03:20 AM 64.9°F18.3°C 63.4°F17.4°C 95% 6.0 mph S9.7 kmh S 12.0 mph19.3 kmh 29.90 in1012.5 mb 0.00 in0.0 mm 0.00 in0.0 mm 0.00 in0.0 mm
03:22 AM 64.9°F18.3°C 63.4°F17.4°C 95% 6.0 mph S9.7 kmh S 15.0 mph24.1 kmh 29.91 in1012.9 mb 0.00 in0.0 mm 0.00 in0.0 mm 0.00 in0.0 mm
03:24 AM 65.0°F18.3°C 63.5°F17.5°C 95% 6.0 mph S9.7 kmh S 15.0 mph24.1 kmh 29.91 in1012.9 mb 0.00 in0.0 mm 0.00 in0.0 mm 0.00 in0.0 mm
03:26 AM 65.0°F18.3°C 63.5°F17.5°C 95% 7.0 mph S11.3 kmh S 15.0 mph24.1 kmh 29.92 in1013.2 mb 0.00 in0.0 mm 0.00 in0.0 mm 0.00 in0.0 mm
03:28 AM 65.0°F18.3°C 63.5°F17.5°C 95% 8.0 mph S12.9 kmh S 15.0 mph24.1 kmh 29.92 in1013.2 mb 0.00 in0.0 mm 0.00 in0.0 mm 0.00 in0.0 mm
03:30 AM 65.0°F18.3°C 63.5°F17.5°C 95% 8.0 mph S12.9 kmh S 15.0 mph24.1 kmh 29.92 in1013.2 mb 0.00 in0.0 mm 0.00 in0.0 mm 0.00 in0.0 mm
03:32 AM 65.0°F18.3°C 63.5°F17.5°C 95% 8.0 mph S12.9 kmh S 14.0 mph22.5 kmh 29.93 in1013.5 mb 0.00 in0.0 mm 0.00 in0.0 mm 0.00 in0.0 mm
03:34 AM 65.1°F18.4°C 63.6°F17.6°C 95% 7.0 mph SSW11.3 kmh SSW 13.0 mph20.9 kmh 29.93 in1013.5 mb 0.00 in0.0 mm 0.00 in0.0 mm 0.00 in0.0 mm
03:36 AM 65.0°F18.3°C 63.5°F17.5°C 95% 7.0 mph SSW11.3 kmh SSW 13.0 mph20.9 kmh 29.93 in1013.5 mb 0.00 in0.0 mm 0.00 in0.0 mm 0.00 in0.0 mm
03:38 AM 65.1°F18.4°C 63.6°F17.6°C 95% 6.0 mph SSW9.7 kmh SSW 13.0 mph20.9 kmh 29.93 in1013.5 mb 0.00 in0.0 mm 0.00 in0.0 mm 0.00 in0.0 mm
03:40 AM 65.1°F18.4°C 63.6°F17.6°C 95% 6.0 mph SSW9.7 kmh SSW 13.0 mph20.9 kmh 29.94 in1013.9 mb 0.00 in0.0 mm 0.00 in0.0 mm 0.00 in0.0 mm
03:42 AM 65.1°F18.4°C 63.6°F17.6°C 95% 6.0 mph SSW9.7 kmh SSW 15.0 mph24.1 kmh 29.93 in1013.5 mb 0.00 in0.0 mm 0.00 in0.0 mm 0.00 in0.0 mm
03:44 AM 65.1°F18.4°C 63.6°F17.6°C 95% 7.0 mph SSW11.3 kmh SSW 15.0 mph24.1 kmh 29.93 in1013.5 mb 0.00 in0.0 mm 0.00 in0.0 mm 0.00 in0.0 mm
03:46 AM 65.1°F18.4°C 63.6°F17.6°C 95% 6.0 mph SSW9.7 kmh SSW 15.0 mph24.1 kmh 29.93 in1013.5 mb 0.00 in0.0 mm 0.00 in0.0 mm 0.00 in0.0 mm
03:48 AM 65.2°F18.4°C 63.7°F17.6°C 95% 6.0 mph S9.7 kmh S 15.0 mph24.1 kmh 29.94 in1013.9 mb 0.00 in0.0 mm 0.00 in0.0 mm 0.00 in0.0 mm
03:50 AM 65.2°F18.4°C 63.7°F17.6°C 95% 6.0 mph S9.7 kmh S 15.0 mph24.1 kmh 29.94 in1013.9 mb 0.00 in0.0 mm 0.00 in0.0 mm 0.00 in0.0 mm
03:52 AM 65.2°F18.4°C 63.7°F17.6°C 95% 6.0 mph S9.7 kmh S 15.0 mph24.1 kmh 29.95 in1014.2 mb 0.00 in0.0 mm 0.00 in0.0 mm 0.00 in0.0 mm
03:54 AM 65.2°F18.4°C 63.7°F17.6°C 95% 6.0 mph S9.7 kmh S 14.0 mph22.5 kmh 29.95 in1014.2 mb 0.00 in0.0 mm 0.00 in0.0 mm 0.00 in0.0 mm
03:56 AM 65.3°F18.5°C 63.8°F17.7°C 95% 6.0 mph S9.7 kmh S 14.0 mph22.5 kmh 29.95 in1014.2 mb 0.00 in0.0 mm 0.00 in0.0 mm 0.00 in0.0 mm
03:58 AM 65.3°F18.5°C 63.8°F17.7°C 95% 6.0 mph SSW9.7 kmh SSW 14.0 mph22.5 kmh 29.96 in1014.6 mb 0.00 in0.0 mm 0.00 in0.0 mm 0.00 in0.0 mm
04:00 AM 65.4°F18.6°C 63.9°F17.7°C 95% 6.0 mph SSW9.7 kmh SSW 15.0 mph24.1 kmh 29.96 in1014.6 mb 0.00 in0.0 mm 0.00 in0.0 mm 0.00 in0.0 mm
04:02 AM 65.4°F18.6°C 63.9°F17.7°C 95% 7.0 mph SSW11.3 kmh SSW 15.0 mph24.1 kmh 29.95 in1014.2 mb 0.00 in0.0 mm 0.00 in0.0 mm 0.00 in0.0 mm
04:04 AM 65.4°F18.6°C 63.9°F17.7°C 95% 7.0 mph SSW11.3 kmh SSW 15.0 mph24.1 kmh 29.96 in1014.6 mb 0.00 in0.0 mm 0.00 in0.0 mm 0.00 in0.0 mm
04:06 AM 65.4°F18.6°C 63.9°F17.7°C 95% 7.0 mph SSW11.3 kmh SSW 15.0 mph24.1 kmh 29.96 in1014.6 mb 0.00 in0.0 mm 0.00 in0.0 mm 0.00 in0.0 mm
04:08 AM 65.4°F18.6°C 63.9°F17.7°C 95% 7.0 mph S11.3 kmh S 15.0 mph24.1 kmh 29.96 in1014.6 mb 0.00 in0.0 mm 0.00 in0.0 mm 0.00 in0.0 mm
04:10 AM 65.4°F18.6°C 63.9°F17.7°C 95% 7.0 mph SSW11.3 kmh SSW 13.0 mph20.9 kmh 29.97 in1014.9 mb 0.00 in0.0 mm 0.00 in0.0 mm 0.00 in0.0 mm
04:12 AM 65.4°F18.6°C 63.9°F17.7°C 95% 6.0 mph S9.7 kmh S 13.0 mph20.9 kmh 29.97 in1014.9 mb 0.00 in0.0 mm 0.00 in0.0 mm 0.00 in0.0 mm
04:14 AM 65.4°F18.6°C 63.9°F17.7°C 95% 6.0 mph S9.7 kmh S 13.0 mph20.9 kmh 29.97 in1014.9 mb 0.00 in0.0 mm 0.00 in0.0 mm 0.00 in0.0 mm
04:16 AM 65.4°F18.6°C 63.9°F17.7°C 95% 6.0 mph S9.7 kmh S 12.0 mph19.3 kmh 29.97 in1014.9 mb 0.00 in0.0 mm 0.00 in0.0 mm 0.00 in0.0 mm
04:18 AM 65.3°F18.5°C 63.8°F17.7°C 95% 6.0 mph S9.7 kmh S 12.0 mph19.3 kmh 29.97 in1014.9 mb 0.00 in0.0 mm 0.00 in0.0 mm 0.00 in0.0 mm
04:20 AM 65.3°F18.5°C 63.8°F17.7°C 95% 6.0 mph S9.7 kmh S 12.0 mph19.3 kmh 29.96 in1014.6 mb 0.00 in0.0 mm 0.00 in0.0 mm 0.00 in0.0 mm
04:22 AM 65.3°F18.5°C 63.8°F17.7°C 95% 6.0 mph S9.7 kmh S 12.0 mph19.3 kmh 29.95 in1014.2 mb 0.00 in0.0 mm 0.00 in0.0 mm 0.00 in0.0 mm
04:24 AM 65.3°F18.5°C 63.8°F17.7°C 95% 5.0 mph S8.0 kmh S 10.0 mph16.1 kmh 29.94 in1013.9 mb 0.00 in0.0 mm 0.00 in0.0 mm 0.00 in0.0 mm
04:26 AM 65.3°F18.5°C 63.8°F17.7°C 95% 4.0 mph S6.4 kmh S 10.0 mph16.1 kmh 29.93 in1013.5 mb 0.00 in0.0 mm 0.00 in0.0 mm 0.00 in0.0 mm
04:28 AM 65.2°F18.4°C 63.7°F17.6°C 95% 3.0 mph S4.8 kmh S 10.0 mph16.1 kmh 29.94 in1013.9 mb 0.00 in0.0 mm 0.00 in0.0 mm 0.00 in0.0 mm
04:30 AM 65.2°F18.4°C 63.7°F17.6°C 95% 3.0 mph S4.8 kmh S 8.0 mph12.9 kmh 29.94 in1013.9 mb 0.00 in0.0 mm 0.00 in0.0 mm 0.00 in0.0 mm
04:32 AM 65.2°F18.4°C 63.7°F17.6°C 95% 3.0 mph S4.8 kmh S 7.0 mph11.3 kmh 29.95 in1014.2 mb 0.00 in0.0 mm 0.00 in0.0 mm 0.00 in0.0 mm
04:34 AM 65.2°F18.4°C 63.7°F17.6°C 95% 3.0 mph S4.8 kmh S 7.0 mph11.3 kmh 29.95 in1014.2 mb 0.00 in0.0 mm 0.00 in0.0 mm 0.00 in0.0 mm
04:36 AM 65.1°F18.4°C 63.6°F17.6°C 95% 3.0 mph S4.8 kmh S 8.0 mph12.9 kmh 29.94 in1013.9 mb 0.00 in0.0 mm 0.00 in0.0 mm 0.00 in0.0 mm
04:38 AM 65.1°F18.4°C 63.6°F17.6°C 95% 3.0 mph S4.8 kmh S 8.0 mph12.9 kmh 29.95 in1014.2 mb 0.00 in0.0 mm 0.00 in0.0 mm 0.00 in0.0 mm
04:40 AM 65.1°F18.4°C 63.6°F17.6°C 95% 3.0 mph S4.8 kmh S 8.0 mph12.9 kmh 29.95 in1014.2 mb 0.00 in0.0 mm 0.00 in0.0 mm 0.00 in0.0 mm
04:42 AM 65.1°F18.4°C 63.6°F17.6°C 95% 3.0 mph SSE4.8 kmh SSE 8.0 mph12.9 kmh 29.94 in1013.9 mb 0.00 in0.0 mm 0.00 in0.0 mm 0.00 in0.0 mm
04:44 AM 65.0°F18.3°C 63.5°F17.5°C 95% 3.0 mph S4.8 kmh S 8.0 mph12.9 kmh 29.94 in1013.9 mb 0.00 in0.0 mm 0.00 in0.0 mm 0.00 in0.0 mm
04:46 AM 65.0°F18.3°C 63.5°F17.5°C 95% 3.0 mph S4.8 kmh S 8.0 mph12.9 kmh 29.94 in1013.9 mb 0.00 in0.0 mm 0.00 in0.0 mm 0.00 in0.0 mm
04:48 AM 65.0°F18.3°C 63.5°F17.5°C 95% 3.0 mph S4.8 kmh S 8.0 mph12.9 kmh 29.94 in1013.9 mb 0.00 in0.0 mm 0.00 in0.0 mm 0.00 in0.0 mm
04:50 AM 65.0°F18.3°C 63.5°F17.5°C 95% 2.0 mph S3.2 kmh S 8.0 mph12.9 kmh 29.94 in1013.9 mb 0.00 in0.0 mm 0.00 in0.0 mm 0.00 in0.0 mm
04:52 AM 64.9°F18.3°C 63.4°F17.4°C 95% 2.0 mph S3.2 kmh S 6.0 mph9.7 kmh 29.95 in1014.2 mb 0.00 in0.0 mm 0.00 in0.0 mm 0.00 in0.0 mm
04:54 AM 64.9°F18.3°C 63.4°F17.4°C 95% 2.0 mph S3.2 kmh S 6.0 mph9.7 kmh 29.95 in1014.2 mb 0.00 in0.0 mm 0.00 in0.0 mm 0.00 in0.0 mm
04:56 AM 64.9°F18.3°C 63.4°F17.4°C 95% 3.0 mph S4.8 kmh S 6.0 mph9.7 kmh 29.95 in1014.2 mb 0.00 in0.0 mm 0.00 in0.0 mm 0.00 in0.0 mm
04:58 AM 64.9°F18.3°C 63.4°F17.4°C 95% 3.0 mph S4.8 kmh S 7.0 mph11.3 kmh 29.95 in1014.2 mb 0.00 in0.0 mm 0.00 in0.0 mm 0.00 in0.0 mm
05:00 AM 64.9°F18.3°C 63.4°F17.4°C 95% 4.0 mph S6.4 kmh S 8.0 mph12.9 kmh 29.95 in1014.2 mb 0.00 in0.0 mm 0.00 in0.0 mm 0.00 in0.0 mm
05:02 AM 64.9°F18.3°C 63.4°F17.4°C 95% 4.0 mph S6.4 kmh S 10.0 mph16.1 kmh 29.95 in1014.2 mb 0.00 in0.0 mm 0.00 in0.0 mm 0.00 in0.0 mm
05:04 AM 64.9°F18.3°C 63.4°F17.4°C 95% 5.0 mph S8.0 kmh S 10.0 mph16.1 kmh 29.95 in1014.2 mb 0.00 in0.0 mm 0.00 in0.0 mm 0.00 in0.0 mm
05:06 AM 64.9°F18.3°C 63.4°F17.4°C 95% 5.0 mph S8.0 kmh S 10.0 mph16.1 kmh 29.95 in1014.2 mb 0.00 in0.0 mm 0.00 in0.0 mm 0.00 in0.0 mm
05:08 AM 64.9°F18.3°C 63.4°F17.4°C 95% 5.0 mph SSE8.0 kmh SSE 10.0 mph16.1 kmh 29.95 in1014.2 mb 0.00 in0.0 mm 0.00 in0.0 mm 0.00 in0.0 mm
05:10 AM 64.9°F18.3°C 63.4°F17.4°C 95% 5.0 mph S8.0 kmh S 10.0 mph16.1 kmh 29.96 in1014.6 mb 0.00 in0.0 mm 0.00 in0.0 mm 0.00 in0.0 mm
05:12 AM 64.8°F18.2°C 63.3°F17.4°C 95% 5.0 mph S8.0 kmh S 9.0 mph14.5 kmh 29.96 in1014.6 mb 0.00 in0.0 mm 0.00 in0.0 mm 0.00 in0.0 mm
05:14 AM 64.8°F18.2°C 63.3°F17.4°C 95% 4.0 mph S6.4 kmh S 9.0 mph14.5 kmh 29.96 in1014.6 mb 0.00 in0.0 mm 0.00 in0.0 mm 0.00 in0.0 mm
05:16 AM 64.8°F18.2°C 63.3°F17.4°C 95% 4.0 mph S6.4 kmh S 11.0 mph17.7 kmh 29.96 in1014.6 mb 0.00 in0.0 mm 0.00 in0.0 mm 0.00 in0.0 mm
05:18 AM 64.8°F18.2°C 63.3°F17.4°C 95% 5.0 mph S8.0 kmh S 11.0 mph17.7 kmh 29.96 in1014.6 mb 0.00 in0.0 mm 0.00 in0.0 mm 0.00 in0.0 mm
05:20 AM 64.8°F18.2°C 63.3°F17.4°C 95% 5.0 mph S8.0 kmh S 11.0 mph17.7 kmh 29.96 in1014.6 mb 0.00 in0.0 mm 0.00 in0.0 mm 0.00 in0.0 mm
05:22 AM 64.8°F18.2°C 63.3°F17.4°C 95% 5.0 mph S8.0 kmh S 11.0 mph17.7 kmh 29.96 in1014.6 mb 0.00 in0.0 mm 0.00 in0.0 mm 0.00 in0.0 mm
05:24 AM 64.8°F18.2°C 63.3°F17.4°C 95% 5.0 mph S8.0 kmh S 11.0 mph17.7 kmh 29.96 in1014.6 mb 0.00 in0.0 mm 0.00 in0.0 mm 0.00 in0.0 mm
05:26 AM 64.8°F18.2°C 63.3°F17.4°C 95% 4.0 mph S6.4 kmh S 9.0 mph14.5 kmh 29.95 in1014.2 mb 0.00 in0.0 mm 0.00 in0.0 mm 0.00 in0.0 mm
05:28 AM 64.7°F18.2°C 63.2°F17.3°C 95% 3.0 mph SSE4.8 kmh SSE 9.0 mph14.5 kmh 29.95 in1014.2 mb 0.00 in0.0 mm 0.00 in0.0 mm 0.00 in0.0 mm
05:30 AM 64.7°F18.2°C 63.2°F17.3°C 95% 3.0 mph SSE4.8 kmh SSE 9.0 mph14.5 kmh 29.95 in1014.2 mb 0.00 in0.0 mm 0.00 in0.0 mm 0.00 in0.0 mm
05:32 AM 64.7°F18.2°C 63.2°F17.3°C 95% 2.0 mph SSE3.2 kmh SSE 8.0 mph12.9 kmh 29.95 in1014.2 mb 0.00 in0.0 mm 0.00 in0.0 mm 0.00 in0.0 mm
05:34 AM 64.7°F18.2°C 63.2°F17.3°C 95% 1.0 mph SSE1.6 kmh SSE 7.0 mph11.3 kmh 29.95 in1014.2 mb 0.00 in0.0 mm 0.00 in0.0 mm 0.00 in0.0 mm
05:36 AM 64.7°F18.2°C 63.2°F17.3°C 95% 1.0 mph SE1.6 kmh SE 3.0 mph4.8 kmh 29.94 in1013.9 mb 0.00 in0.0 mm 0.00 in0.0 mm 0.00 in0.0 mm
05:38 AM 64.7°F18.2°C 63.2°F17.3°C 95% 1.0 mph SE1.6 kmh SE 3.0 mph4.8 kmh 29.94 in1013.9 mb 0.00 in0.0 mm 0.00 in0.0 mm 0.00 in0.0 mm
05:40 AM 64.7°F18.2°C 63.2°F17.3°C 95% 1.0 mph SE1.6 kmh SE 3.0 mph4.8 kmh 29.94 in1013.9 mb 0.00 in0.0 mm 0.00 in0.0 mm 0.00 in0.0 mm
05:42 AM 64.7°F18.2°C 63.2°F17.3°C 95% 1.0 mph SE1.6 kmh SE 3.0 mph4.8 kmh 29.94 in1013.9 mb 0.00 in0.0 mm 0.00 in0.0 mm 0.00 in0.0 mm
05:44 AM 64.6°F18.1°C 63.1°F17.3°C 95% 1.0 mph SE1.6 kmh SE 4.0 mph6.4 kmh 29.93 in1013.5 mb 0.00 in0.0 mm 0.00 in0.0 mm 0.00 in0.0 mm
05:46 AM 64.7°F18.2°C 63.2°F17.3°C 95% 2.0 mph SE3.2 kmh SE 5.0 mph8.0 kmh 29.94 in1013.9 mb 0.00 in0.0 mm 0.00 in0.0 mm 0.00 in0.0 mm
05:48 AM 64.6°F18.1°C 63.1°F17.3°C 95% 2.0 mph SE3.2 kmh SE 5.0 mph8.0 kmh 29.94 in1013.9 mb 0.00 in0.0 mm 0.00 in0.0 mm 0.00 in0.0 mm
05:50 AM 64.6°F18.1°C 63.1°F17.3°C 95% 2.0 mph SSE3.2 kmh SSE 5.0 mph8.0 kmh 29.94 in1013.9 mb 0.00 in0.0 mm 0.00 in0.0 mm 0.00 in0.0 mm
05:52 AM 64.6°F18.1°C 63.1°F17.3°C 95% 2.0 mph SSE3.2 kmh SSE 7.0 mph11.3 kmh 29.94 in1013.9 mb 0.00 in0.0 mm 0.00 in0.0 mm 0.00 in0.0 mm
05:54 AM 64.6°F18.1°C 63.1°F17.3°C 95% 3.0 mph S4.8 kmh S 7.0 mph11.3 kmh 29.94 in1013.9 mb 0.00 in0.0 mm 0.00 in0.0 mm 0.00 in0.0 mm
05:56 AM 64.6°F18.1°C 63.1°F17.3°C 95% 3.0 mph S4.8 kmh S 8.0 mph12.9 kmh 29.94 in1013.9 mb 0.00 in0.0 mm 0.00 in0.0 mm 0.00 in0.0 mm
05:58 AM 64.6°F18.1°C 63.1°F17.3°C 95% 3.0 mph S4.8 kmh S 8.0 mph12.9 kmh 29.94 in1013.9 mb 0.00 in0.0 mm 0.00 in0.0 mm 0.00 in0.0 mm
06:00 AM 64.6°F18.1°C 63.1°F17.3°C 95% 3.0 mph SSE4.8 kmh SSE 8.0 mph12.9 kmh 29.94 in1013.9 mb 0.00 in0.0 mm 0.00 in0.0 mm 0.00 in0.0 mm
06:02 AM 64.6°F18.1°C 63.1°F17.3°C 95% 4.0 mph SSE6.4 kmh SSE 9.0 mph14.5 kmh 29.94 in1013.9 mb 0.00 in0.0 mm 0.00 in0.0 mm 0.00 in0.0 mm
06:04 AM 64.6°F18.1°C 63.1°F17.3°C 95% 4.0 mph SSE6.4 kmh SSE 9.0 mph14.5 kmh 29.93 in1013.5 mb 0.00 in0.0 mm 0.00 in0.0 mm 0.00 in0.0 mm
06:06 AM 64.6°F18.1°C 63.1°F17.3°C 95% 3.0 mph SSE4.8 kmh SSE 9.0 mph14.5 kmh 29.93 in1013.5 mb 0.00 in0.0 mm 0.00 in0.0 mm 0.00 in0.0 mm
06:08 AM 64.6°F18.1°C 63.1°F17.3°C 95% 3.0 mph S4.8 kmh S 9.0 mph14.5 kmh 29.93 in1013.5 mb 0.00 in0.0 mm 0.00 in0.0 mm 0.00 in0.0 mm
06:12 AM 64.5°F18.1°C 63.0°F17.2°C 95% 2.0 mph SSE3.2 kmh SSE 1.0 mph1.6 kmh 29.93 in1013.5 mb 0.00 in0.0 mm 0.00 in0.0 mm 2.07 in52.6 mm
06:14 AM 64.5°F18.1°C 63.0°F17.2°C 95% 2.0 mph S3.2 kmh S 6.0 mph9.7 kmh 29.93 in1013.5 mb 0.00 in0.0 mm 0.00 in0.0 mm 2.07 in52.6 mm
06:16 AM 64.5°F18.1°C 63.0°F17.2°C 95% 2.0 mph S3.2 kmh S 6.0 mph9.7 kmh 29.93 in1013.5 mb 0.00 in0.0 mm 0.00 in0.0 mm 2.07 in52.6 mm
06:18 AM 64.5°F18.1°C 63.0°F17.2°C 95% 2.0 mph S3.2 kmh S 6.0 mph9.7 kmh 29.93 in1013.5 mb 0.00 in0.0 mm 0.00 in0.0 mm 2.07 in52.6 mm
06:20 AM 64.5°F18.1°C 63.0°F17.2°C 95% 2.0 mph S3.2 kmh S 10.0 mph16.1 kmh 29.94 in1013.9 mb 0.00 in0.0 mm 0.00 in0.0 mm 2.07 in52.6 mm
06:22 AM 64.5°F18.1°C 63.0°F17.2°C 95% 3.0 mph S4.8 kmh S 10.0 mph16.1 kmh 29.93 in1013.5 mb 0.00 in0.0 mm 0.00 in0.0 mm 2.07 in52.6 mm
06:24 AM 64.5°F18.1°C 63.0°F17.2°C 95% 3.0 mph S4.8 kmh S 10.0 mph16.1 kmh 29.94 in1013.9 mb 0.00 in0.0 mm 0.00 in0.0 mm 2.07 in52.6 mm
06:26 AM 64.5°F18.1°C 63.0°F17.2°C 95% 3.0 mph S4.8 kmh S 10.0 mph16.1 kmh 29.94 in1013.9 mb 0.00 in0.0 mm 0.00 in0.0 mm 2.07 in52.6 mm
06:28 AM 64.5°F18.1°C 63.0°F17.2°C 95% 4.0 mph S6.4 kmh S 10.0 mph16.1 kmh 29.94 in1013.9 mb 0.00 in0.0 mm 0.00 in0.0 mm 2.07 in52.6 mm
06:30 AM 64.5°F18.1°C 63.0°F17.2°C 95% 4.0 mph S6.4 kmh S 10.0 mph16.1 kmh 29.93 in1013.5 mb 0.00 in0.0 mm 0.00 in0.0 mm 2.07 in52.6 mm
06:32 AM 64.5°F18.1°C 63.0°F17.2°C 95% 4.0 mph S6.4 kmh S 11.0 mph17.7 kmh 29.94 in1013.9 mb 0.00 in0.0 mm 0.00 in0.0 mm 2.07 in52.6 mm
06:34 AM 64.5°F18.1°C 63.0°F17.2°C 95% 4.0 mph S6.4 kmh S 13.0 mph20.9 kmh 29.94 in1013.9 mb 0.00 in0.0 mm 0.00 in0.0 mm 2.07 in52.6 mm
06:36 AM 64.5°F18.1°C 63.0°F17.2°C 95% 5.0 mph S8.0 kmh S 13.0 mph20.9 kmh 29.94 in1013.9 mb 0.00 in0.0 mm 0.00 in0.0 mm 2.07 in52.6 mm
06:38 AM 64.4°F18.0°C 62.9°F17.2°C 95% 5.0 mph S8.0 kmh S 13.0 mph20.9 kmh 29.94 in1013.9 mb 0.00 in0.0 mm 0.00 in0.0 mm 2.07 in52.6 mm
06:40 AM 64.4°F18.0°C 62.9°F17.2°C 95% 5.0 mph S8.0 kmh S 13.0 mph20.9 kmh 29.94 in1013.9 mb 0.00 in0.0 mm 0.00 in0.0 mm 2.07 in52.6 mm
06:42 AM 64.4°F18.0°C 62.9°F17.2°C 95% 5.0 mph S8.0 kmh S 13.0 mph20.9 kmh 29.94 in1013.9 mb 0.00 in0.0 mm 0.00 in0.0 mm 2.07 in52.6 mm
06:44 AM 64.4°F18.0°C 62.9°F17.2°C 95% 4.0 mph S6.4 kmh S 9.0 mph14.5 kmh 29.94 in1013.9 mb 0.00 in0.0 mm 0.00 in0.0 mm 2.07 in52.6 mm
06:46 AM 64.3°F17.9°C 62.8°F17.1°C 95% 4.0 mph S6.4 kmh S 8.0 mph12.9 kmh 29.94 in1013.9 mb 0.00 in0.0 mm 0.00 in0.0 mm 2.07 in52.6 mm
06:48 AM 64.4°F18.0°C 62.9°F17.2°C 95% 4.0 mph S6.4 kmh S 9.0 mph14.5 kmh 29.94 in1013.9 mb 0.00 in0.0 mm 0.00 in0.0 mm 2.07 in52.6 mm
06:50 AM 64.3°F17.9°C 62.8°F17.1°C 95% 4.0 mph S6.4 kmh S 9.0 mph14.5 kmh 29.93 in1013.5 mb 0.00 in0.0 mm 0.00 in0.0 mm 2.07 in52.6 mm
06:52 AM 64.4°F18.0°C 62.9°F17.2°C 95% 3.0 mph S4.8 kmh S 9.0 mph14.5 kmh 29.94 in1013.9 mb 0.00 in0.0 mm 0.00 in0.0 mm 2.07 in52.6 mm
06:54 AM 64.4°F18.0°C 62.9°F17.2°C 95% 3.0 mph S4.8 kmh S 9.0 mph14.5 kmh 29.94 in1013.9 mb 0.00 in0.0 mm 0.00 in0.0 mm 2.07 in52.6 mm
06:56 AM 64.4°F18.0°C 62.9°F17.2°C 95% 4.0 mph S6.4 kmh S 9.0 mph14.5 kmh 29.94 in1013.9 mb 0.00 in0.0 mm 0.00 in0.0 mm 2.07 in52.6 mm
06:58 AM 64.4°F18.0°C 62.9°F17.2°C 95% 4.0 mph S6.4 kmh S 9.0 mph14.5 kmh 29.94 in1013.9 mb 0.00 in0.0 mm 0.00 in0.0 mm 2.07 in52.6 mm
07:00 AM 64.5°F18.1°C 63.0°F17.2°C 95% 4.0 mph S6.4 kmh S 9.0 mph14.5 kmh 29.94 in1013.9 mb 0.00 in0.0 mm 0.00 in0.0 mm 2.07 in52.6 mm
07:02 AM 64.5°F18.1°C 63.0°F17.2°C 95% 4.0 mph S6.4 kmh S 9.0 mph14.5 kmh 29.94 in1013.9 mb 0.00 in0.0 mm 0.00 in0.0 mm 2.07 in52.6 mm
07:04 AM 64.6°F18.1°C 63.1°F17.3°C 95% 4.0 mph S6.4 kmh S 9.0 mph14.5 kmh 29.95 in1014.2 mb 0.00 in0.0 mm 0.00 in0.0 mm 2.07 in52.6 mm
07:06 AM 64.6°F18.1°C 63.1°F17.3°C 95% 4.0 mph S6.4 kmh S 9.0 mph14.5 kmh 29.95 in1014.2 mb 0.00 in0.0 mm 0.00 in0.0 mm 2.07 in52.6 mm
07:08 AM 64.7°F18.2°C 63.2°F17.3°C 95% 4.0 mph S6.4 kmh S 9.0 mph14.5 kmh 29.96 in1014.6 mb 0.00 in0.0 mm 0.00 in0.0 mm 2.07 in52.6 mm
07:10 AM 64.7°F18.2°C 63.2°F17.3°C 95% 4.0 mph S6.4 kmh S 10.0 mph16.1 kmh 29.95 in1014.2 mb 0.00 in0.0 mm 0.00 in0.0 mm 2.07 in52.6 mm
07:12 AM 64.8°F18.2°C 63.3°F17.4°C 95% 4.0 mph S6.4 kmh S 11.0 mph17.7 kmh 29.95 in1014.2 mb 0.00 in0.0 mm 0.00 in0.0 mm 2.07 in52.6 mm
07:14 AM 64.7°F18.2°C 63.2°F17.3°C 95% 5.0 mph S8.0 kmh S 11.0 mph17.7 kmh 29.95 in1014.2 mb 0.00 in0.0 mm 0.00 in0.0 mm 2.07 in52.6 mm
07:16 AM 64.8°F18.2°C 63.3°F17.4°C 95% 5.0 mph S8.0 kmh S 11.0 mph17.7 kmh 29.96 in1014.6 mb 0.00 in0.0 mm 0.00 in0.0 mm 2.07 in52.6 mm
07:18 AM 64.8°F18.2°C 63.3°F17.4°C 95% 4.0 mph S6.4 kmh S 11.0 mph17.7 kmh 29.95 in1014.2 mb 0.00 in0.0 mm 0.00 in0.0 mm 2.07 in52.6 mm
07:20 AM 64.8°F18.2°C 63.3°F17.4°C 95% 4.0 mph S6.4 kmh S 11.0 mph17.7 kmh 29.95 in1014.2 mb 0.00 in0.0 mm 0.00 in0.0 mm 2.07 in52.6 mm
07:22 AM 64.8°F18.2°C 63.3°F17.4°C 95% 3.0 mph S4.8 kmh S 9.0 mph14.5 kmh 29.96 in1014.6 mb 0.00 in0.0 mm 0.00 in0.0 mm 2.07 in52.6 mm
07:24 AM 64.8°F18.2°C 63.3°F17.4°C 95% 3.0 mph S4.8 kmh S 6.0 mph9.7 kmh 29.96 in1014.6 mb 0.00 in0.0 mm 0.00 in0.0 mm 2.07 in52.6 mm
07:26 AM 64.9°F18.3°C 63.4°F17.4°C 95% 3.0 mph S4.8 kmh S 6.0 mph9.7 kmh 29.96 in1014.6 mb 0.00 in0.0 mm 0.00 in0.0 mm 2.07 in52.6 mm
07:28 AM 64.9°F18.3°C 63.4°F17.4°C 95% 3.0 mph S4.8 kmh S 6.0 mph9.7 kmh 29.96 in1014.6 mb 0.00 in0.0 mm 0.00 in0.0 mm 2.07 in52.6 mm
07:30 AM 65.0°F18.3°C 63.5°F17.5°C 95% 3.0 mph S4.8 kmh S 6.0 mph9.7 kmh 29.96 in1014.6 mb 0.00 in0.0 mm 0.00 in0.0 mm 2.07 in52.6 mm
07:32 AM 65.0°F18.3°C 63.5°F17.5°C 95% 3.0 mph S4.8 kmh S 6.0 mph9.7 kmh 29.96 in1014.6 mb 0.00 in0.0 mm 0.00 in0.0 mm 2.07 in52.6 mm
07:34 AM 65.1°F18.4°C 63.6°F17.6°C 95% 3.0 mph S4.8 kmh S 6.0 mph9.7 kmh 29.96 in1014.6 mb 0.00 in0.0 mm 0.00 in0.0 mm 2.07 in52.6 mm
07:36 AM 65.1°F18.4°C 63.6°F17.6°C 95% 2.0 mph SSE3.2 kmh SSE 6.0 mph9.7 kmh 29.96 in1014.6 mb 0.00 in0.0 mm 0.00 in0.0 mm 2.07 in52.6 mm
07:38 AM 65.2°F18.4°C 63.7°F17.6°C 95% 2.0 mph SSE3.2 kmh SSE 5.0 mph8.0 kmh 29.96 in1014.6 mb 0.00 in0.0 mm 0.00 in0.0 mm 2.07 in52.6 mm
07:40 AM 65.2°F18.4°C 63.7°F17.6°C 95% 1.0 mph SSE1.6 kmh SSE 5.0 mph8.0 kmh 29.96 in1014.6 mb 0.00 in0.0 mm 0.00 in0.0 mm 2.07 in52.6 mm
07:42 AM 65.3°F18.5°C 63.8°F17.7°C 95% 1.0 mph SSE1.6 kmh SSE 3.0 mph4.8 kmh 29.97 in1014.9 mb 0.00 in0.0 mm 0.00 in0.0 mm 2.07 in52.6 mm
07:44 AM 65.5°F18.6°C 64.0°F17.8°C 95% 1.0 mph S1.6 kmh S 3.0 mph4.8 kmh 29.97 in1014.9 mb 0.00 in0.0 mm 0.00 in0.0 mm 2.07 in52.6 mm
07:46 AM 65.7°F18.7°C 64.2°F17.9°C 95% 1.0 mph W1.6 kmh W 6.0 mph9.7 kmh 29.97 in1014.9 mb 0.00 in0.0 mm 0.00 in0.0 mm 2.07 in52.6 mm
07:48 AM 65.8°F18.8°C 64.0°F17.8°C 94% 1.0 mph W1.6 kmh W 6.0 mph9.7 kmh 29.97 in1014.9 mb 0.00 in0.0 mm 0.00 in0.0 mm 2.07 in52.6 mm
07:50 AM 66.0°F18.9°C 64.2°F17.9°C 94% 1.0 mph W1.6 kmh W 6.0 mph9.7 kmh 29.97 in1014.9 mb 0.00 in0.0 mm 0.00 in0.0 mm 2.07 in52.6 mm
07:52 AM 66.1°F18.9°C 64.6°F18.1°C 95% 1.0 mph WNW1.6 kmh WNW 6.0 mph9.7 kmh 29.97 in1014.9 mb 0.00 in0.0 mm 0.00 in0.0 mm 2.07 in52.6 mm
07:54 AM 66.1°F18.9°C 64.6°F18.1°C 95% 1.0 mph WNW1.6 kmh WNW 6.0 mph9.7 kmh 29.96 in1014.6 mb 0.00 in0.0 mm 0.00 in0.0 mm 2.07 in52.6 mm
07:56 AM 66.2°F19.0°C 64.7°F18.2°C 95% 1.0 mph WNW1.6 kmh WNW 3.0 mph4.8 kmh 29.96 in1014.6 mb 0.00 in0.0 mm 0.00 in0.0 mm 2.07 in52.6 mm
07:58 AM 66.3°F19.1°C 64.8°F18.2°C 95% 1.0 mph WNW1.6 kmh WNW 4.0 mph6.4 kmh 29.96 in1014.6 mb 0.00 in0.0 mm 0.00 in0.0 mm 2.07 in52.6 mm
08:00 AM 66.3°F19.1°C 64.8°F18.2°C 95% 1.0 mph WNW1.6 kmh WNW 4.0 mph6.4 kmh 29.97 in1014.9 mb 0.00 in0.0 mm 0.00 in0.0 mm 2.07 in52.6 mm
08:02 AM 66.3°F19.1°C 64.8°F18.2°C 95% 1.0 mph WNW1.6 kmh WNW 4.0 mph6.4 kmh 29.97 in1014.9 mb 0.00 in0.0 mm 0.00 in0.0 mm 2.07 in52.6 mm
08:04 AM 66.4°F19.1°C 64.9°F18.3°C 95% 1.0 mph NW1.6 kmh NW 4.0 mph6.4 kmh 29.98 in1015.2 mb 0.00 in0.0 mm 0.00 in0.0 mm 2.07 in52.6 mm
08:06 AM 66.3°F19.1°C 64.8°F18.2°C 95% 1.0 mph NW1.6 kmh NW 4.0 mph6.4 kmh 29.98 in1015.2 mb 0.00 in0.0 mm 0.00 in0.0 mm 2.07 in52.6 mm
08:08 AM 66.3°F19.1°C 64.8°F18.2°C 95% 1.0 mph NW1.6 kmh NW 4.0 mph6.4 kmh 29.98 in1015.2 mb 0.00 in0.0 mm 0.00 in0.0 mm 2.07 in52.6 mm
08:10 AM 66.3°F19.1°C 64.8°F18.2°C 95% 1.0 mph NW1.6 kmh NW 4.0 mph6.4 kmh 29.97 in1014.9 mb 0.00 in0.0 mm 0.00 in0.0 mm 2.07 in52.6 mm
08:12 AM 66.2°F19.0°C 64.7°F18.2°C 95% Calm Calm 4.0 mph6.4 kmh 29.97 in1014.9 mb 0.00 in0.0 mm 0.00 in0.0 mm 2.07 in52.6 mm
08:14 AM 66.2°F19.0°C 64.7°F18.2°C 95% Calm Calm 4.0 mph6.4 kmh 29.97 in1014.9 mb 0.00 in0.0 mm 0.00 in0.0 mm 2.07 in52.6 mm
08:16 AM 66.2°F19.0°C 64.7°F18.2°C 95% Calm Calm 4.0 mph6.4 kmh 29.97 in1014.9 mb 0.00 in0.0 mm 0.00 in0.0 mm 2.07 in52.6 mm
08:18 AM 66.2°F19.0°C 64.7°F18.2°C 95% 1.0 mph NW1.6 kmh NW 3.0 mph4.8 kmh 29.97 in1014.9 mb 0.00 in0.0 mm 0.00 in0.0 mm 2.07 in52.6 mm
08:20 AM 66.1°F18.9°C 64.6°F18.1°C 95% 1.0 mph NW1.6 kmh NW 3.0 mph4.8 kmh 29.96 in1014.6 mb 0.00 in0.0 mm 0.00 in0.0 mm 2.07 in52.6 mm
08:22 AM 66.1°F18.9°C 64.6°F18.1°C 95% 1.0 mph NW1.6 kmh NW 5.0 mph8.0 kmh 29.98 in1015.2 mb 0.00 in0.0 mm 0.00 in0.0 mm 2.07 in52.6 mm
08:24 AM 66.1°F18.9°C 64.6°F18.1°C 95% 1.0 mph NW1.6 kmh NW 5.0 mph8.0 kmh 29.98 in1015.2 mb 0.00 in0.0 mm 0.00 in0.0 mm 2.07 in52.6 mm
08:26 AM 66.1°F18.9°C 64.6°F18.1°C 95% 1.0 mph NNW1.6 kmh NNW 5.0 mph8.0 kmh 29.98 in1015.2 mb 0.00 in0.0 mm 0.00 in0.0 mm 2.07 in52.6 mm
08:28 AM 66.1°F18.9°C 64.6°F18.1°C 95% 1.0 mph N1.6 kmh N 5.0 mph8.0 kmh 29.98 in1015.2 mb 0.00 in0.0 mm 0.00 in0.0 mm 2.07 in52.6 mm
08:30 AM 66.1°F18.9°C 64.6°F18.1°C 95% 1.0 mph N1.6 kmh N 5.0 mph8.0 kmh 29.98 in1015.2 mb 0.00 in0.0 mm 0.00 in0.0 mm 2.07 in52.6 mm
08:32 AM 66.2°F19.0°C 64.7°F18.2°C 95% 1.0 mph NNW1.6 kmh NNW 5.0 mph8.0 kmh 29.98 in1015.2 mb 0.00 in0.0 mm 0.00 in0.0 mm 2.07 in52.6 mm
08:34 AM 66.2°F19.0°C 64.7°F18.2°C 95% 1.0 mph NNW1.6 kmh NNW 5.0 mph8.0 kmh 29.99 in1015.6 mb 0.00 in0.0 mm 0.00 in0.0 mm 2.07 in52.6 mm
08:36 AM 66.3°F19.1°C 64.8°F18.2°C 95% 2.0 mph NNW3.2 kmh NNW 6.0 mph9.7 kmh 29.99 in1015.6 mb 0.00 in0.0 mm 0.00 in0.0 mm 2.07 in52.6 mm
08:38 AM 66.3°F19.1°C 64.8°F18.2°C 95% 2.0 mph NNW3.2 kmh NNW 6.0 mph9.7 kmh 29.99 in1015.6 mb 0.00 in0.0 mm 0.00 in0.0 mm 2.07 in52.6 mm
08:40 AM 66.4°F19.1°C 64.9°F18.3°C 95% 2.0 mph NNW3.2 kmh NNW 6.0 mph9.7 kmh 29.99 in1015.6 mb 0.00 in0.0 mm 0.00 in0.0 mm 2.07 in52.6 mm
08:42 AM 66.4°F19.1°C 64.9°F18.3°C 95% 2.0 mph NNW3.2 kmh NNW 6.0 mph9.7 kmh 29.99 in1015.6 mb 0.00 in0.0 mm 0.00 in0.0 mm 2.07 in52.6 mm
08:44 AM 66.4°F19.1°C 64.9°F18.3°C 95% 2.0 mph NNW3.2 kmh NNW 6.0 mph9.7 kmh 29.99 in1015.6 mb 0.00 in0.0 mm 0.00 in0.0 mm 2.07 in52.6 mm
08:46 AM 66.4°F19.1°C 64.9°F18.3°C 95% 1.0 mph NNW1.6 kmh NNW 6.0 mph9.7 kmh 29.99 in1015.6 mb 0.00 in0.0 mm 0.00 in0.0 mm 2.07 in52.6 mm
08:48 AM 66.5°F19.2°C 65.0°F18.3°C 95% 1.0 mph NNW1.6 kmh NNW 6.0 mph9.7 kmh 29.99 in1015.6 mb 0.00 in0.0 mm 0.00 in0.0 mm 2.07 in52.6 mm
08:50 AM 66.5°F19.2°C 65.0°F18.3°C 95% 1.0 mph NNW1.6 kmh NNW 6.0 mph9.7 kmh 30.00 in1015.9 mb 0.00 in0.0 mm 0.00 in0.0 mm 2.07 in52.6 mm
08:52 AM 66.5°F19.2°C 65.0°F18.3°C 95% 1.0 mph NNW1.6 kmh NNW 4.0 mph6.4 kmh 30.00 in1015.9 mb 0.00 in0.0 mm 0.00 in0.0 mm 2.07 in52.6 mm
08:54 AM 66.5°F19.2°C 65.0°F18.3°C 95% 1.0 mph NNW1.6 kmh NNW 5.0 mph8.0 kmh 30.00 in1015.9 mb 0.00 in0.0 mm 0.00 in0.0 mm 2.07 in52.6 mm
08:56 AM 66.5°F19.2°C 65.0°F18.3°C 95% 1.0 mph NNW1.6 kmh NNW 5.0 mph8.0 kmh 30.00 in1015.9 mb 0.00 in0.0 mm 0.00 in0.0 mm 2.07 in52.6 mm
08:58 AM 66.6°F19.2°C 65.1°F18.4°C 95% 1.0 mph NNW1.6 kmh NNW 5.0 mph8.0 kmh 30.00 in1015.9 mb 0.00 in0.0 mm 0.00 in0.0 mm 2.07 in52.6 mm
09:00 AM 66.5°F19.2°C 65.0°F18.3°C 95% 1.0 mph NNW1.6 kmh NNW 5.0 mph8.0 kmh 30.00 in1015.9 mb 0.00 in0.0 mm 0.00 in0.0 mm 2.07 in52.6 mm
09:02 AM 66.5°F19.2°C 65.0°F18.3°C 95% 1.0 mph NNW1.6 kmh NNW 5.0 mph8.0 kmh 30.00 in1015.9 mb 0.00 in0.0 mm 0.00 in0.0 mm 2.07 in52.6 mm
09:04 AM 66.5°F19.2°C 65.0°F18.3°C 95% 1.0 mph NNW1.6 kmh NNW 5.0 mph8.0 kmh 30.00 in1015.9 mb 0.00 in0.0 mm 0.00 in0.0 mm 2.07 in52.6 mm
09:06 AM 66.5°F19.2°C 65.0°F18.3°C 95% 1.0 mph NNW1.6 kmh NNW 5.0 mph8.0 kmh 30.00 in1015.9 mb 0.00 in0.0 mm 0.00 in0.0 mm 2.07 in52.6 mm
09:08 AM 66.4°F19.1°C 64.9°F18.3°C 95% 1.0 mph NNW1.6 kmh NNW 4.0 mph6.4 kmh 30.00 in1015.9 mb 0.00 in0.0 mm 0.00 in0.0 mm 2.07 in52.6 mm
09:10 AM 66.5°F19.2°C 65.0°F18.3°C 95% Calm Calm 2.0 mph3.2 kmh 30.01 in1016.3 mb 0.00 in0.0 mm 0.00 in0.0 mm 2.07 in52.6 mm
09:12 AM 66.5°F19.2°C 65.0°F18.3°C 95% Calm Calm 2.0 mph3.2 kmh 30.01 in1016.3 mb 0.00 in0.0 mm 0.00 in0.0 mm 2.07 in52.6 mm
09:14 AM 66.6°F19.2°C 65.1°F18.4°C 95% 1.0 mph NNW1.6 kmh NNW 4.0 mph6.4 kmh 30.01 in1016.3 mb 0.00 in0.0 mm 0.00 in0.0 mm 2.07 in52.6 mm
09:16 AM 66.6°F19.2°C 65.1°F18.4°C 95% 1.0 mph NNW1.6 kmh NNW 5.0 mph8.0 kmh 30.01 in1016.3 mb 0.00 in0.0 mm 0.00 in0.0 mm 2.07 in52.6 mm
09:18 AM 66.6°F19.2°C 65.1°F18.4°C 95% 1.0 mph NNW1.6 kmh NNW 5.0 mph8.0 kmh 30.01 in1016.3 mb 0.00 in0.0 mm 0.00 in0.0 mm 2.07 in52.6 mm
09:20 AM 66.7°F19.3°C 65.2°F18.4°C 95% 1.0 mph NNW1.6 kmh NNW 5.0 mph8.0 kmh 30.01 in1016.3 mb 0.00 in0.0 mm 0.00 in0.0 mm 2.07 in52.6 mm
09:22 AM 66.9°F19.4°C 65.4°F18.6°C 95% 1.0 mph NNW1.6 kmh NNW 5.0 mph8.0 kmh 30.01 in1016.3 mb 0.00 in0.0 mm 0.00 in0.0 mm 2.07 in52.6 mm
09:24 AM 67.0°F19.4°C 65.5°F18.6°C 95% 1.0 mph NNW1.6 kmh NNW 5.0 mph8.0 kmh 30.02 in1016.6 mb 0.00 in0.0 mm 0.00 in0.0 mm 2.07 in52.6 mm
09:26 AM 67.0°F19.4°C 65.5°F18.6°C 95% 1.0 mph NNW1.6 kmh NNW 5.0 mph8.0 kmh 30.02 in1016.6 mb 0.00 in0.0 mm 0.00 in0.0 mm 2.07 in52.6 mm
09:28 AM 67.0°F19.4°C 65.5°F18.6°C 95% 1.0 mph NNW1.6 kmh NNW 5.0 mph8.0 kmh 30.02 in1016.6 mb 0.00 in0.0 mm 0.00 in0.0 mm 2.07 in52.6 mm
09:30 AM 67.0°F19.4°C 65.5°F18.6°C 95% 1.0 mph NNW1.6 kmh NNW 6.0 mph9.7 kmh 30.02 in1016.6 mb 0.00 in0.0 mm 0.00 in0.0 mm 2.07 in52.6 mm
09:32 AM 67.0°F19.4°C 65.5°F18.6°C 95% 2.0 mph NNW3.2 kmh NNW 6.0 mph9.7 kmh 30.02 in1016.6 mb 0.00 in0.0 mm 0.00 in0.0 mm 2.07 in52.6 mm
09:34 AM 66.9°F19.4°C 65.4°F18.6°C 95% 2.0 mph NNW3.2 kmh NNW 6.0 mph9.7 kmh 30.02 in1016.6 mb 0.00 in0.0 mm 0.00 in0.0 mm 2.07 in52.6 mm
09:36 AM 66.9°F19.4°C 65.4°F18.6°C 95% 2.0 mph NNW3.2 kmh NNW 6.0 mph9.7 kmh 30.02 in1016.6 mb 0.00 in0.0 mm 0.00 in0.0 mm 2.07 in52.6 mm
09:38 AM 67.0°F19.4°C 65.5°F18.6°C 95% 1.0 mph NNW1.6 kmh NNW 6.0 mph9.7 kmh 30.02 in1016.6 mb 0.00 in0.0 mm 0.00 in0.0 mm 2.07 in52.6 mm
09:40 AM 67.0°F19.4°C 65.5°F18.6°C 95% 1.0 mph NNW1.6 kmh NNW 2.0 mph3.2 kmh 30.02 in1016.6 mb 0.00 in0.0 mm 0.00 in0.0 mm 2.07 in52.6 mm
09:42 AM 67.0°F19.4°C 65.5°F18.6°C 95% Calm Calm 2.0 mph3.2 kmh 30.02 in1016.6 mb 0.00 in0.0 mm 0.00 in0.0 mm 2.07 in52.6 mm
09:44 AM 67.1°F19.5°C 65.6°F18.7°C 95% Calm Calm 4.0 mph6.4 kmh 30.02 in1016.6 mb 0.00 in0.0 mm 0.00 in0.0 mm 2.07 in52.6 mm
09:46 AM 67.2°F19.6°C 65.7°F18.7°C 95% Calm Calm 4.0 mph6.4 kmh 30.03 in1016.9 mb 0.00 in0.0 mm 0.00 in0.0 mm 2.07 in52.6 mm
09:48 AM 67.3°F19.6°C 65.8°F18.8°C 95% Calm Calm 4.0 mph6.4 kmh 30.03 in1016.9 mb 0.00 in0.0 mm 0.00 in0.0 mm 2.07 in52.6 mm
09:50 AM 67.5°F19.7°C 66.0°F18.9°C 95% Calm Calm 4.0 mph6.4 kmh 30.03 in1016.9 mb 0.00 in0.0 mm 0.00 in0.0 mm 2.07 in52.6 mm
09:52 AM 67.7°F19.8°C 66.2°F19.0°C 95% Calm Calm 4.0 mph6.4 kmh 30.03 in1016.9 mb 0.00 in0.0 mm 0.00 in0.0 mm 2.07 in52.6 mm
09:54 AM 68.0°F20.0°C 66.5°F19.2°C 95% 1.0 mph NNW1.6 kmh NNW 3.0 mph4.8 kmh 30.03 in1016.9 mb 0.00 in0.0 mm 0.00 in0.0 mm 2.07 in52.6 mm
09:56 AM 68.2°F20.1°C 66.7°F19.3°C 95% 1.0 mph NNW1.6 kmh NNW 4.0 mph6.4 kmh 30.03 in1016.9 mb 0.00 in0.0 mm 0.00 in0.0 mm 2.07 in52.6 mm
09:58 AM 68.3°F20.2°C 66.8°F19.3°C 95% 1.0 mph NNW1.6 kmh NNW 4.0 mph6.4 kmh 30.04 in1017.3 mb 0.00 in0.0 mm 0.00 in0.0 mm 2.07 in52.6 mm
10:00 AM 68.5°F20.3°C 67.0°F19.4°C 95% 1.0 mph NNW1.6 kmh NNW 4.0 mph6.4 kmh 30.04 in1017.3 mb 0.00 in0.0 mm 0.00 in0.0 mm 2.07 in52.6 mm
10:02 AM 68.6°F20.3°C 67.1°F19.5°C 95% 1.0 mph NNW1.6 kmh NNW 4.0 mph6.4 kmh 30.04 in1017.3 mb 0.00 in0.0 mm 0.00 in0.0 mm 2.07 in52.6 mm
10:04 AM 68.8°F20.4°C 67.3°F19.6°C 95% 1.0 mph NNW1.6 kmh NNW 5.0 mph8.0 kmh 30.04 in1017.3 mb 0.00 in0.0 mm 0.00 in0.0 mm 2.07 in52.6 mm
10:06 AM 68.8°F20.4°C 67.3°F19.6°C 95% 1.0 mph NNW1.6 kmh NNW 6.0 mph9.7 kmh 30.04 in1017.3 mb 0.00 in0.0 mm 0.00 in0.0 mm 2.07 in52.6 mm
10:08 AM 68.9°F20.5°C 67.4°F19.7°C 95% 1.0 mph NNW1.6 kmh NNW 6.0 mph9.7 kmh 30.04 in1017.3 mb 0.00 in0.0 mm 0.00 in0.0 mm 2.07 in52.6 mm
10:10 AM 69.0°F20.6°C 67.5°F19.7°C 95% 1.0 mph NNW1.6 kmh NNW 6.0 mph9.7 kmh 30.04 in1017.3 mb 0.00 in0.0 mm 0.00 in0.0 mm 2.07 in52.6 mm
10:12 AM 69.0°F20.6°C 67.5°F19.7°C 95% 1.0 mph NNW1.6 kmh NNW 6.0 mph9.7 kmh 30.04 in1017.3 mb 0.00 in0.0 mm 0.00 in0.0 mm 2.07 in52.6 mm
10:14 AM 69.1°F20.6°C 67.3°F19.6°C 94% 1.0 mph NNW1.6 kmh NNW 6.0 mph9.7 kmh 30.04 in1017.3 mb 0.00 in0.0 mm 0.00 in0.0 mm 2.07 in52.6 mm
10:16 AM 69.1°F20.6°C 67.3°F19.6°C 94% 1.0 mph NW1.6 kmh NW 4.0 mph6.4 kmh 30.04 in1017.3 mb 0.00 in0.0 mm 0.00 in0.0 mm 2.07 in52.6 mm
10:18 AM 69.2°F20.7°C 67.4°F19.7°C 94% Calm Calm 4.0 mph6.4 kmh 30.04 in1017.3 mb 0.00 in0.0 mm 0.00 in0.0 mm 2.07 in52.6 mm
10:20 AM 69.3°F20.7°C 67.5°F19.7°C 94% 1.0 mph NNW1.6 kmh NNW 5.0 mph8.0 kmh 30.04 in1017.3 mb 0.00 in0.0 mm 0.00 in0.0 mm 2.07 in52.6 mm
10:22 AM 69.4°F20.8°C 67.6°F19.8°C 94% 1.0 mph NNW1.6 kmh NNW 5.0 mph8.0 kmh 30.04 in1017.3 mb 0.00 in0.0 mm 0.00 in0.0 mm 2.07 in52.6 mm
10:24 AM 69.5°F20.8°C 67.7°F19.8°C 94% 1.0 mph NW1.6 kmh NW 5.0 mph8.0 kmh 30.04 in1017.3 mb 0.00 in0.0 mm 0.00 in0.0 mm 2.07 in52.6 mm
10:26 AM 69.7°F20.9°C 67.9°F19.9°C 94% 1.0 mph NW1.6 kmh NW 5.0 mph8.0 kmh 30.04 in1017.3 mb 0.00 in0.0 mm 0.00 in0.0 mm 2.07 in52.6 mm
10:28 AM 69.9°F21.1°C 68.1°F20.1°C 94% 1.0 mph NW1.6 kmh NW 5.0 mph8.0 kmh 30.04 in1017.3 mb 0.00 in0.0 mm 0.00 in0.0 mm 2.07 in52.6 mm
10:30 AM 70.1°F21.2°C 68.3°F20.2°C 94% 1.0 mph NNW1.6 kmh NNW 6.0 mph9.7 kmh 30.04 in1017.3 mb 0.00 in0.0 mm 0.00 in0.0 mm 2.07 in52.6 mm
10:32 AM 70.4°F21.3°C 68.6°F20.3°C 94% 2.0 mph NNW3.2 kmh NNW 6.0 mph9.7 kmh 30.04 in1017.3 mb 0.00 in0.0 mm 0.00 in0.0 mm 2.07 in52.6 mm
10:34 AM 70.7°F21.5°C 68.6°F20.3°C 93% 2.0 mph NNW3.2 kmh NNW 6.0 mph9.7 kmh 30.04 in1017.3 mb 0.00 in0.0 mm 0.00 in0.0 mm 2.07 in52.6 mm
10:36 AM 71.1°F21.7°C 69.3°F20.7°C 94% 3.0 mph NNW4.8 kmh NNW 6.0 mph9.7 kmh 30.04 in1017.3 mb 0.00 in0.0 mm 0.00 in0.0 mm 2.07 in52.6 mm
10:38 AM 71.3°F21.8°C 68.9°F20.5°C 92% 3.0 mph NNW4.8 kmh NNW 7.0 mph11.3 kmh 30.04 in1017.3 mb 0.00 in0.0 mm 0.00 in0.0 mm 2.07 in52.6 mm
10:40 AM 71.5°F21.9°C 69.1°F20.6°C 92% 3.0 mph NNW4.8 kmh NNW 7.0 mph11.3 kmh 30.04 in1017.3 mb 0.00 in0.0 mm 0.00 in0.0 mm 2.07 in52.6 mm
10:42 AM 71.7°F22.1°C 68.9°F20.5°C 91% 3.0 mph NNW4.8 kmh NNW 7.0 mph11.3 kmh 30.04 in1017.3 mb 0.00 in0.0 mm 0.00 in0.0 mm 2.07 in52.6 mm
10:44 AM 72.0°F22.2°C 69.2°F20.7°C 91% 2.0 mph NNW3.2 kmh NNW 7.0 mph11.3 kmh 30.04 in1017.3 mb 0.00 in0.0 mm 0.00 in0.0 mm 2.07 in52.6 mm
10:46 AM 72.2°F22.3°C 69.4°F20.8°C 91% 2.0 mph NNW3.2 kmh NNW 9.0 mph14.5 kmh 30.05 in1017.6 mb 0.00 in0.0 mm 0.00 in0.0 mm 2.07 in52.6 mm
10:48 AM 72.4°F22.4°C 69.3°F20.7°C 90% 2.0 mph NNW3.2 kmh NNW 9.0 mph14.5 kmh 30.05 in1017.6 mb 0.00 in0.0 mm 0.00 in0.0 mm 2.07 in52.6 mm
10:50 AM 72.6°F22.6°C 69.5°F20.8°C 90% 2.0 mph NNW3.2 kmh NNW 9.0 mph14.5 kmh 30.05 in1017.6 mb 0.00 in0.0 mm 0.00 in0.0 mm 2.07 in52.6 mm
10:52 AM 72.6°F22.6°C 69.5°F20.8°C 90% 2.0 mph NNW3.2 kmh NNW 9.0 mph14.5 kmh 30.05 in1017.6 mb 0.00 in0.0 mm 0.00 in0.0 mm 2.07 in52.6 mm
10:54 AM 72.7°F22.6°C 69.3°F20.7°C 89% 2.0 mph NNW3.2 kmh NNW 9.0 mph14.5 kmh 30.05 in1017.6 mb 0.00 in0.0 mm 0.00 in0.0 mm 2.07 in52.6 mm
10:56 AM 72.6°F22.6°C 68.5°F20.3°C 87% 2.0 mph NNW3.2 kmh NNW 8.0 mph12.9 kmh 30.05 in1017.6 mb 0.00 in0.0 mm 0.00 in0.0 mm 2.07 in52.6 mm
10:58 AM 72.5°F22.5°C 68.7°F20.4°C 88% 3.0 mph NNW4.8 kmh NNW 8.0 mph12.9 kmh 30.05 in1017.6 mb 0.00 in0.0 mm 0.00 in0.0 mm 2.07 in52.6 mm
11:00 AM 72.4°F22.4°C 68.3°F20.2°C 87% 2.0 mph NNW3.2 kmh NNW 8.0 mph12.9 kmh 30.05 in1017.6 mb 0.00 in0.0 mm 0.00 in0.0 mm 2.07 in52.6 mm
11:02 AM 72.4°F22.4°C 68.6°F20.3°C 88% 2.0 mph NNW3.2 kmh NNW 8.0 mph12.9 kmh 30.05 in1017.6 mb 0.00 in0.0 mm 0.00 in0.0 mm 2.07 in52.6 mm
11:04 AM 72.5°F22.5°C 69.1°F20.6°C 89% 2.0 mph NNW3.2 kmh NNW 8.0 mph12.9 kmh 30.05 in1017.6 mb 0.00 in0.0 mm 0.00 in0.0 mm 2.07 in52.6 mm
11:06 AM 72.5°F22.5°C 68.7°F20.4°C 88% 2.0 mph NNW3.2 kmh NNW 8.0 mph12.9 kmh 30.06 in1017.9 mb 0.00 in0.0 mm 0.00 in0.0 mm 2.07 in52.6 mm
11:08 AM 72.4°F22.4°C 68.6°F20.3°C 88% 2.0 mph NNW3.2 kmh NNW 8.0 mph12.9 kmh 30.06 in1017.9 mb 0.00 in0.0 mm 0.00 in0.0 mm 2.07 in52.6 mm
11:10 AM 72.3°F22.4°C 68.5°F20.3°C 88% 2.0 mph NNW3.2 kmh NNW 8.0 mph12.9 kmh 30.06 in1017.9 mb 0.00 in0.0 mm 0.00 in0.0 mm 2.07 in52.6 mm
11:12 AM 72.3°F22.4°C 68.5°F20.3°C 88% 2.0 mph NNW3.2 kmh NNW 8.0 mph12.9 kmh 30.06 in1017.9 mb 0.00 in0.0 mm 0.00 in0.0 mm 2.07 in52.6 mm
11:14 AM 72.2°F22.3°C 68.4°F20.2°C 88% 2.0 mph NNW3.2 kmh NNW 8.0 mph12.9 kmh 30.06 in1017.9 mb 0.00 in0.0 mm 0.00 in0.0 mm 2.07 in52.6 mm
11:16 AM 72.2°F22.3°C 68.4°F20.2°C 88% 2.0 mph NNW3.2 kmh NNW 7.0 mph11.3 kmh 30.06 in1017.9 mb 0.00 in0.0 mm 0.00 in0.0 mm 2.07 in52.6 mm
11:18 AM 72.2°F22.3°C 68.4°F20.2°C 88% 2.0 mph NNW3.2 kmh NNW 7.0 mph11.3 kmh 30.06 in1017.9 mb 0.00 in0.0 mm 0.00 in0.0 mm 2.07 in52.6 mm
11:20 AM 72.2°F22.3°C 68.4°F20.2°C 88% 2.0 mph NNW3.2 kmh NNW 7.0 mph11.3 kmh 30.06 in1017.9 mb 0.00 in0.0 mm 0.00 in0.0 mm 2.07 in52.6 mm
11:22 AM 72.2°F22.3°C 68.4°F20.2°C 88% 2.0 mph NNW3.2 kmh NNW 7.0 mph11.3 kmh 30.06 in1017.9 mb 0.00 in0.0 mm 0.00 in0.0 mm 2.07 in52.6 mm
11:24 AM 72.3°F22.4°C 68.9°F20.5°C 89% 2.0 mph NNW3.2 kmh NNW 7.0 mph11.3 kmh 30.06 in1017.9 mb 0.00 in0.0 mm 0.00 in0.0 mm 2.07 in52.6 mm
11:26 AM 72.4°F22.4°C 69.0°F20.6°C 89% 1.0 mph NNW1.6 kmh NNW 5.0 mph8.0 kmh 30.06 in1017.9 mb 0.00 in0.0 mm 0.00 in0.0 mm 2.07 in52.6 mm
11:28 AM 72.5°F22.5°C 69.1°F20.6°C 89% 1.0 mph NNW1.6 kmh NNW 5.0 mph8.0 kmh 30.06 in1017.9 mb 0.00 in0.0 mm 0.00 in0.0 mm 2.07 in52.6 mm
11:30 AM 72.5°F22.5°C 69.1°F20.6°C 89% 1.0 mph NNW1.6 kmh NNW 5.0 mph8.0 kmh 30.06 in1017.9 mb 0.00 in0.0 mm 0.00 in0.0 mm 2.07 in52.6 mm
11:32 AM 72.5°F22.5°C 69.1°F20.6°C 89% 2.0 mph N3.2 kmh N 7.0 mph11.3 kmh 30.06 in1017.9 mb 0.00 in0.0 mm 0.00 in0.0 mm 2.07 in52.6 mm
11:34 AM 72.3°F22.4°C 68.5°F20.3°C 88% 2.0 mph NNE3.2 kmh NNE 7.0 mph11.3 kmh 30.06 in1017.9 mb 0.00 in0.0 mm 0.00 in0.0 mm 2.07 in52.6 mm
11:36 AM 72.0°F22.2°C 68.2°F20.1°C 88% 2.0 mph NE3.2 kmh NE 7.0 mph11.3 kmh 30.06 in1017.9 mb 0.00 in0.0 mm 0.00 in0.0 mm 2.07 in52.6 mm
11:38 AM 71.7°F22.1°C 68.0°F20.0°C 88% 2.0 mph NE3.2 kmh NE 7.0 mph11.3 kmh 30.06 in1017.9 mb 0.00 in0.0 mm 0.00 in0.0 mm 2.07 in52.6 mm
11:40 AM 71.6°F22.0°C 68.2°F20.1°C 89% 2.0 mph ENE3.2 kmh ENE 7.0 mph11.3 kmh 30.06 in1017.9 mb 0.00 in0.0 mm 0.00 in0.0 mm 2.07 in52.6 mm
11:42 AM 71.5°F21.9°C 68.1°F20.1°C 89% 2.0 mph ENE3.2 kmh ENE 7.0 mph11.3 kmh 30.06 in1017.9 mb 0.00 in0.0 mm 0.00 in0.0 mm 2.07 in52.6 mm
11:44 AM 71.4°F21.9°C 68.0°F20.0°C 89% 2.0 mph NE3.2 kmh NE 7.0 mph11.3 kmh 30.06 in1017.9 mb 0.00 in0.0 mm 0.00 in0.0 mm 2.07 in52.6 mm
11:46 AM 71.3°F21.8°C 68.2°F20.1°C 90% 1.0 mph NNE1.6 kmh NNE 5.0 mph8.0 kmh 30.06 in1017.9 mb 0.00 in0.0 mm 0.00 in0.0 mm 2.07 in52.6 mm
11:48 AM 71.3°F21.8°C 68.2°F20.1°C 90% 1.0 mph N1.6 kmh N 5.0 mph8.0 kmh 30.06 in1017.9 mb 0.00 in0.0 mm 0.00 in0.0 mm 2.07 in52.6 mm
11:50 AM 71.0°F21.7°C 67.6°F19.8°C 89% 1.0 mph N1.6 kmh N 5.0 mph8.0 kmh 30.06 in1017.9 mb 0.00 in0.0 mm 0.00 in0.0 mm 2.07 in52.6 mm
11:52 AM 70.8°F21.6°C 67.4°F19.7°C 89% 1.0 mph N1.6 kmh N 5.0 mph8.0 kmh 30.06 in1017.9 mb 0.00 in0.0 mm 0.00 in0.0 mm 2.07 in52.6 mm
11:54 AM 70.6°F21.4°C 67.2°F19.6°C 89% 1.0 mph NE1.6 kmh NE 3.0 mph4.8 kmh 30.06 in1017.9 mb 0.00 in0.0 mm 0.00 in0.0 mm 2.07 in52.6 mm
11:56 AM 70.5°F21.4°C 67.1°F19.5°C 89% 1.0 mph NE1.6 kmh NE 3.0 mph4.8 kmh 30.06 in1017.9 mb 0.00 in0.0 mm 0.00 in0.0 mm 2.07 in52.6 mm
11:58 AM 70.3°F21.3°C 66.9°F19.4°C 89% 1.0 mph NE1.6 kmh NE 3.0 mph4.8 kmh 30.07 in1018.3 mb 0.00 in0.0 mm 0.00 in0.0 mm 2.07 in52.6 mm
12:00 PM 70.3°F21.3°C 67.2°F19.6°C 90% 1.0 mph NE1.6 kmh NE 5.0 mph8.0 kmh 30.07 in1018.3 mb 0.00 in0.0 mm 0.00 in0.0 mm 2.07 in52.6 mm
12:02 PM 70.3°F21.3°C 67.2°F19.6°C 90% 1.0 mph NE1.6 kmh NE 5.0 mph8.0 kmh 30.07 in1018.3 mb 0.00 in0.0 mm 0.00 in0.0 mm 2.07 in52.6 mm
12:04 PM 70.1°F21.2°C 67.0°F19.4°C 90% 1.0 mph NE1.6 kmh NE 6.0 mph9.7 kmh 30.06 in1017.9 mb 0.00 in0.0 mm 0.00 in0.0 mm 2.07 in52.6 mm
12:06 PM 69.9°F21.1°C 66.8°F19.3°C 90% 1.0 mph NE1.6 kmh NE 6.0 mph9.7 kmh 30.06 in1017.9 mb 0.00 in0.0 mm 0.00 in0.0 mm 2.07 in52.6 mm
12:08 PM 69.8°F21.0°C 66.7°F19.3°C 90% 1.0 mph NE1.6 kmh NE 6.0 mph9.7 kmh 30.06 in1017.9 mb 0.00 in0.0 mm 0.00 in0.0 mm 2.07 in52.6 mm
12:10 PM 69.7°F20.9°C 67.0°F19.4°C 91% 1.0 mph ENE1.6 kmh ENE 6.0 mph9.7 kmh 30.07 in1018.3 mb 0.00 in0.0 mm 0.00 in0.0 mm 2.07 in52.6 mm
12:12 PM 69.6°F20.9°C 66.5°F19.2°C 90% 1.0 mph E1.6 kmh E 6.0 mph9.7 kmh 30.07 in1018.3 mb 0.00 in0.0 mm 0.00 in0.0 mm 2.07 in52.6 mm
12:14 PM 69.5°F20.8°C 66.4°F19.1°C 90% 1.0 mph E1.6 kmh E 3.0 mph4.8 kmh 30.07 in1018.3 mb 0.00 in0.0 mm 0.00 in0.0 mm 2.07 in52.6 mm
12:16 PM 69.3°F20.7°C 66.2°F19.0°C 90% 1.0 mph E1.6 kmh E 3.0 mph4.8 kmh 30.07 in1018.3 mb 0.00 in0.0 mm 0.00 in0.0 mm 2.07 in52.6 mm
12:18 PM 69.2°F20.7°C 66.5°F19.2°C 91% 1.0 mph E1.6 kmh E 3.0 mph4.8 kmh 30.06 in1017.9 mb 0.00 in0.0 mm 0.00 in0.0 mm 2.07 in52.6 mm
12:20 PM 69.1°F20.6°C 66.4°F19.1°C 91% 1.0 mph E1.6 kmh E 3.0 mph4.8 kmh 30.06 in1017.9 mb 0.00 in0.0 mm 0.00 in0.0 mm 2.07 in52.6 mm
12:22 PM 69.1°F20.6°C 66.4°F19.1°C 91% 1.0 mph E1.6 kmh E 3.0 mph4.8 kmh 30.06 in1017.9 mb 0.00 in0.0 mm 0.00 in0.0 mm 2.07 in52.6 mm
12:24 PM 69.1°F20.6°C 66.4°F19.1°C 91% 1.0 mph ENE1.6 kmh ENE 3.0 mph4.8 kmh 30.06 in1017.9 mb 0.00 in0.0 mm 0.00 in0.0 mm 2.07 in52.6 mm
12:26 PM 69.0°F20.6°C 66.3°F19.1°C 91% 1.0 mph ENE1.6 kmh ENE 4.0 mph6.4 kmh 30.06 in1017.9 mb 0.00 in0.0 mm 0.00 in0.0 mm 2.07 in52.6 mm
12:28 PM 69.0°F20.6°C 66.3°F19.1°C 91% 1.0 mph ENE1.6 kmh ENE 4.0 mph6.4 kmh 30.06 in1017.9 mb 0.00 in0.0 mm 0.00 in0.0 mm 2.07 in52.6 mm
12:30 PM 69.0°F20.6°C 66.3°F19.1°C 91% 1.0 mph E1.6 kmh E 4.0 mph6.4 kmh 30.06 in1017.9 mb 0.00 in0.0 mm 0.00 in0.0 mm 2.07 in52.6 mm
12:32 PM 68.9°F20.5°C 65.8°F18.8°C 90% 1.0 mph E1.6 kmh E 7.0 mph11.3 kmh 30.06 in1017.9 mb 0.00 in0.0 mm 0.00 in0.0 mm 2.07 in52.6 mm
12:34 PM 68.8°F20.4°C 65.7°F18.7°C 90% 1.0 mph E1.6 kmh E 7.0 mph11.3 kmh 30.06 in1017.9 mb 0.00 in0.0 mm 0.00 in0.0 mm 2.07 in52.6 mm
12:36 PM 68.6°F20.3°C 65.5°F18.6°C 90% 2.0 mph E3.2 kmh E 7.0 mph11.3 kmh 30.06 in1017.9 mb 0.00 in0.0 mm 0.00 in0.0 mm 2.07 in52.6 mm
12:38 PM 68.5°F20.3°C 65.4°F18.6°C 90% 2.0 mph E3.2 kmh E 7.0 mph11.3 kmh 30.06 in1017.9 mb 0.00 in0.0 mm 0.00 in0.0 mm 2.07 in52.6 mm
12:40 PM 68.5°F20.3°C 65.4°F18.6°C 90% 2.0 mph E3.2 kmh E 7.0 mph11.3 kmh 30.07 in1018.3 mb 0.00 in0.0 mm 0.00 in0.0 mm 2.07 in52.6 mm
12:42 PM 68.5°F20.3°C 65.4°F18.6°C 90% 2.0 mph E3.2 kmh E 7.0 mph11.3 kmh 30.07 in1018.3 mb 0.00 in0.0 mm 0.00 in0.0 mm 2.07 in52.6 mm
12:44 PM 68.5°F20.3°C 65.8°F18.8°C 91% 2.0 mph E3.2 kmh E 7.0 mph11.3 kmh 30.07 in1018.3 mb 0.00 in0.0 mm 0.00 in0.0 mm 2.07 in52.6 mm
12:46 PM 68.4°F20.2°C 65.7°F18.7°C 91% 2.0 mph E3.2 kmh E 4.0 mph6.4 kmh 30.07 in1018.3 mb 0.00 in0.0 mm 0.00 in0.0 mm 2.07 in52.6 mm
12:48 PM 68.4°F20.2°C 65.7°F18.7°C 91% 2.0 mph E3.2 kmh E 4.0 mph6.4 kmh 30.07 in1018.3 mb 0.00 in0.0 mm 0.00 in0.0 mm 2.07 in52.6 mm
12:50 PM 68.4°F20.2°C 65.7°F18.7°C 91% 2.0 mph E3.2 kmh E 6.0 mph9.7 kmh 30.07 in1018.3 mb 0.00 in0.0 mm 0.00 in0.0 mm 2.07 in52.6 mm
12:52 PM 68.3°F20.2°C 65.3°F18.5°C 90% 2.0 mph E3.2 kmh E 8.0 mph12.9 kmh 30.07 in1018.3 mb 0.00 in0.0 mm 0.00 in0.0 mm 2.07 in52.6 mm
12:54 PM 68.1°F20.1°C 65.1°F18.4°C 90% 2.0 mph E3.2 kmh E 8.0 mph12.9 kmh 30.07 in1018.3 mb 0.00 in0.0 mm 0.00 in0.0 mm 2.07 in52.6 mm
12:56 PM 68.0°F20.0°C 65.0°F18.3°C 90% 3.0 mph E4.8 kmh E 8.0 mph12.9 kmh 30.07 in1018.3 mb 0.00 in0.0 mm 0.00 in0.0 mm 2.07 in52.6 mm
12:58 PM 67.8°F19.9°C 64.8°F18.2°C 90% 3.0 mph E4.8 kmh E 8.0 mph12.9 kmh 30.07 in1018.3 mb 0.00 in0.0 mm 0.00 in0.0 mm 2.07 in52.6 mm
01:00 PM 67.8°F19.9°C 64.8°F18.2°C 90% 3.0 mph E4.8 kmh E 8.0 mph12.9 kmh 30.07 in1018.3 mb 0.00 in0.0 mm 0.00 in0.0 mm 2.07 in52.6 mm
01:02 PM 67.7°F19.8°C 65.0°F18.3°C 91% 3.0 mph E4.8 kmh E 9.0 mph14.5 kmh 30.07 in1018.3 mb 0.00 in0.0 mm 0.00 in0.0 mm 2.07 in52.6 mm
01:04 PM 67.7°F19.8°C 65.0°F18.3°C 91% 3.0 mph E4.8 kmh E 9.0 mph14.5 kmh 30.07 in1018.3 mb 0.00 in0.0 mm 0.00 in0.0 mm 2.07 in52.6 mm
01:06 PM 67.7°F19.8°C 65.0°F18.3°C 91% 3.0 mph E4.8 kmh E 9.0 mph14.5 kmh 30.07 in1018.3 mb 0.00 in0.0 mm 0.00 in0.0 mm 2.07 in52.6 mm
01:08 PM 67.7°F19.8°C 65.0°F18.3°C 91% 2.0 mph ENE3.2 kmh ENE 9.0 mph14.5 kmh 30.07 in1018.3 mb 0.00 in0.0 mm 0.00 in0.0 mm 2.07 in52.6 mm
01:10 PM 67.7°F19.8°C 65.0°F18.3°C 91% 2.0 mph E3.2 kmh E 9.0 mph14.5 kmh 30.07 in1018.3 mb 0.00 in0.0 mm 0.00 in0.0 mm 2.07 in52.6 mm
01:12 PM 67.7°F19.8°C 65.0°F18.3°C 91% 2.0 mph E3.2 kmh E 6.0 mph9.7 kmh 30.07 in1018.3 mb 0.00 in0.0 mm 0.00 in0.0 mm 2.07 in52.6 mm
01:14 PM 67.7°F19.8°C 65.0°F18.3°C 91% 2.0 mph E3.2 kmh E 6.0 mph9.7 kmh 30.07 in1018.3 mb 0.00 in0.0 mm 0.00 in0.0 mm 2.07 in52.6 mm
01:16 PM 67.7°F19.8°C 65.0°F18.3°C 91% 2.0 mph E3.2 kmh E 6.0 mph9.7 kmh 30.07 in1018.3 mb 0.00 in0.0 mm 0.00 in0.0 mm 2.07 in52.6 mm
01:18 PM 67.7°F19.8°C 65.0°F18.3°C 91% 2.0 mph E3.2 kmh E 6.0 mph9.7 kmh 30.07 in1018.3 mb 0.00 in0.0 mm 0.00 in0.0 mm 2.07 in52.6 mm
01:20 PM 67.9°F19.9°C 65.2°F18.4°C 91% 2.0 mph E3.2 kmh E 6.0 mph9.7 kmh 30.07 in1018.3 mb 0.00 in0.0 mm 0.00 in0.0 mm 2.07 in52.6 mm
01:22 PM 67.8°F19.9°C 65.1°F18.4°C 91% 2.0 mph ENE3.2 kmh ENE 6.0 mph9.7 kmh 30.07 in1018.3 mb 0.00 in0.0 mm 0.00 in0.0 mm 2.07 in52.6 mm
01:24 PM 67.9°F19.9°C 65.2°F18.4°C 91% 2.0 mph ENE3.2 kmh ENE 4.0 mph6.4 kmh 30.07 in1018.3 mb 0.00 in0.0 mm 0.00 in0.0 mm 2.07 in52.6 mm
01:26 PM 67.9°F19.9°C 65.2°F18.4°C 91% 2.0 mph NE3.2 kmh NE 5.0 mph8.0 kmh 30.07 in1018.3 mb 0.00 in0.0 mm 0.00 in0.0 mm 2.07 in52.6 mm
01:28 PM 68.0°F20.0°C 65.3°F18.5°C 91% 2.0 mph NE3.2 kmh NE 5.0 mph8.0 kmh 30.07 in1018.3 mb 0.00 in0.0 mm 0.00 in0.0 mm 2.07 in52.6 mm
01:30 PM 68.0°F20.0°C 65.3°F18.5°C 91% 2.0 mph ENE3.2 kmh ENE 5.0 mph8.0 kmh 30.07 in1018.3 mb 0.00 in0.0 mm 0.00 in0.0 mm 2.07 in52.6 mm
01:32 PM 68.1°F20.1°C 65.4°F18.6°C 91% 2.0 mph E3.2 kmh E 5.0 mph8.0 kmh 30.07 in1018.3 mb 0.00 in0.0 mm 0.00 in0.0 mm 2.07 in52.6 mm
01:34 PM 68.1°F20.1°C 65.1°F18.4°C 90% 2.0 mph E3.2 kmh E 8.0 mph12.9 kmh 30.07 in1018.3 mb 0.00 in0.0 mm 0.00 in0.0 mm 2.07 in52.6 mm
01:36 PM 68.1°F20.1°C 65.1°F18.4°C 90% 2.0 mph E3.2 kmh E 8.0 mph12.9 kmh 30.07 in1018.3 mb 0.00 in0.0 mm 0.00 in0.0 mm 2.07 in52.6 mm
01:38 PM 68.1°F20.1°C 65.1°F18.4°C 90% 3.0 mph E4.8 kmh E 8.0 mph12.9 kmh 30.07 in1018.3 mb 0.00 in0.0 mm 0.00 in0.0 mm 2.07 in52.6 mm
01:40 PM 68.1°F20.1°C 65.1°F18.4°C 90% 3.0 mph E4.8 kmh E 8.0 mph12.9 kmh 30.07 in1018.3 mb 0.00 in0.0 mm 0.00 in0.0 mm 2.07 in52.6 mm
01:42 PM 68.2°F20.1°C 65.2°F18.4°C 90% 4.0 mph E6.4 kmh E 8.0 mph12.9 kmh 30.07 in1018.3 mb 0.00 in0.0 mm 0.00 in0.0 mm 2.07 in52.6 mm
01:44 PM 68.4°F20.2°C 65.4°F18.6°C 90% 3.0 mph E4.8 kmh E 7.0 mph11.3 kmh 30.07 in1018.3 mb 0.00 in0.0 mm 0.00 in0.0 mm 2.07 in52.6 mm
01:46 PM 68.5°F20.3°C 65.4°F18.6°C 90% 3.0 mph E4.8 kmh E 7.0 mph11.3 kmh 30.08 in1018.6 mb 0.00 in0.0 mm 0.00 in0.0 mm 2.07 in52.6 mm
01:48 PM 68.4°F20.2°C 65.0°F18.3°C 89% 3.0 mph E4.8 kmh E 7.0 mph11.3 kmh 30.08 in1018.6 mb 0.00 in0.0 mm 0.00 in0.0 mm 2.07 in52.6 mm
01:50 PM 68.4°F20.2°C 65.4°F18.6°C 90% 3.0 mph E4.8 kmh E 7.0 mph11.3 kmh 30.07 in1018.3 mb 0.00 in0.0 mm 0.00 in0.0 mm 2.07 in52.6 mm
01:52 PM 68.3°F20.2°C 64.9°F18.3°C 89% 3.0 mph E4.8 kmh E 7.0 mph11.3 kmh 30.08 in1018.6 mb 0.00 in0.0 mm 0.00 in0.0 mm 2.07 in52.6 mm
01:54 PM 68.2°F20.1°C 64.8°F18.2°C 89% 3.0 mph E4.8 kmh E 7.0 mph11.3 kmh 30.08 in1018.6 mb 0.00 in0.0 mm 0.00 in0.0 mm 2.07 in52.6 mm
01:56 PM 68.2°F20.1°C 64.8°F18.2°C 89% 3.0 mph E4.8 kmh E 7.0 mph11.3 kmh 30.08 in1018.6 mb 0.00 in0.0 mm 0.00 in0.0 mm 2.07 in52.6 mm
01:58 PM 68.1°F20.1°C 64.7°F18.2°C 89% 3.0 mph E4.8 kmh E 7.0 mph11.3 kmh 30.08 in1018.6 mb 0.00 in0.0 mm 0.00 in0.0 mm 2.07 in52.6 mm
02:00 PM 68.1°F20.1°C 64.7°F18.2°C 89% 3.0 mph E4.8 kmh E 7.0 mph11.3 kmh 30.08 in1018.6 mb 0.00 in0.0 mm 0.00 in0.0 mm 2.07 in52.6 mm
02:02 PM 68.0°F20.0°C 65.0°F18.3°C 90% 3.0 mph E4.8 kmh E 7.0 mph11.3 kmh 30.07 in1018.3 mb 0.00 in0.0 mm 0.00 in0.0 mm 2.07 in52.6 mm
02:04 PM 68.1°F20.1°C 65.1°F18.4°C 90% 3.0 mph E4.8 kmh E 7.0 mph11.3 kmh 30.08 in1018.6 mb 0.00 in0.0 mm 0.00 in0.0 mm 2.07 in52.6 mm
02:06 PM 68.2°F20.1°C 65.2°F18.4°C 90% 3.0 mph E4.8 kmh E 7.0 mph11.3 kmh 30.08 in1018.6 mb 0.00 in0.0 mm 0.00 in0.0 mm 2.07 in52.6 mm
02:08 PM 68.4°F20.2°C 65.7°F18.7°C 91% 2.0 mph E3.2 kmh E 7.0 mph11.3 kmh 30.08 in1018.6 mb 0.00 in0.0 mm 0.00 in0.0 mm 2.07 in52.6 mm
02:10 PM 68.6°F20.3°C 65.5°F18.6°C 90% 2.0 mph E3.2 kmh E 7.0 mph11.3 kmh 30.07 in1018.3 mb 0.00 in0.0 mm 0.00 in0.0 mm 2.07 in52.6 mm
02:12 PM 68.7°F20.4°C 65.6°F18.7°C 90% 2.0 mph E3.2 kmh E 8.0 mph12.9 kmh 30.07 in1018.3 mb 0.00 in0.0 mm 0.00 in0.0 mm 2.07 in52.6 mm
02:14 PM 68.8°F20.4°C 65.4°F18.6°C 89% 3.0 mph E4.8 kmh E 8.0 mph12.9 kmh 30.07 in1018.3 mb 0.00 in0.0 mm 0.00 in0.0 mm 2.07 in52.6 mm
02:16 PM 68.8°F20.4°C 65.4°F18.6°C 89% 3.0 mph E4.8 kmh E 8.0 mph12.9 kmh 30.07 in1018.3 mb 0.00 in0.0 mm 0.00 in0.0 mm 2.07 in52.6 mm
02:18 PM 68.9°F20.5°C 65.5°F18.6°C 89% 4.0 mph E6.4 kmh E 8.0 mph12.9 kmh 30.07 in1018.3 mb 0.00 in0.0 mm 0.00 in0.0 mm 2.07 in52.6 mm
02:20 PM 68.9°F20.5°C 65.2°F18.4°C 88% 4.0 mph E6.4 kmh E 8.0 mph12.9 kmh 30.07 in1018.3 mb 0.00 in0.0 mm 0.00 in0.0 mm 2.07 in52.6 mm
02:22 PM 69.0°F20.6°C 65.6°F18.7°C 89% 4.0 mph E6.4 kmh E 8.0 mph12.9 kmh 30.07 in1018.3 mb 0.00 in0.0 mm 0.00 in0.0 mm 2.07 in52.6 mm
02:24 PM 69.1°F20.6°C 65.4°F18.6°C 88% 4.0 mph E6.4 kmh E 8.0 mph12.9 kmh 30.07 in1018.3 mb 0.00 in0.0 mm 0.00 in0.0 mm 2.07 in52.6 mm
02:26 PM 69.1°F20.6°C 65.4°F18.6°C 88% 4.0 mph E6.4 kmh E 8.0 mph12.9 kmh 30.07 in1018.3 mb 0.00 in0.0 mm 0.00 in0.0 mm 2.07 in52.6 mm
02:28 PM 69.2°F20.7°C 65.8°F18.8°C 89% 4.0 mph E6.4 kmh E 8.0 mph12.9 kmh 30.07 in1018.3 mb 0.00 in0.0 mm 0.00 in0.0 mm 2.07 in52.6 mm
02:30 PM 69.3°F20.7°C 65.9°F18.8°C 89% 4.0 mph E6.4 kmh E 9.0 mph14.5 kmh 30.07 in1018.3 mb 0.00 in0.0 mm 0.00 in0.0 mm 2.07 in52.6 mm
02:32 PM 69.4°F20.8°C 65.7°F18.7°C 88% 4.0 mph E6.4 kmh E 9.0 mph14.5 kmh 30.07 in1018.3 mb 0.00 in0.0 mm 0.00 in0.0 mm 2.07 in52.6 mm
02:34 PM 69.5°F20.8°C 65.8°F18.8°C 88% 4.0 mph E6.4 kmh E 9.0 mph14.5 kmh 30.07 in1018.3 mb 0.00 in0.0 mm 0.00 in0.0 mm 2.07 in52.6 mm
02:36 PM 69.5°F20.8°C 65.5°F18.6°C 87% 4.0 mph E6.4 kmh E 9.0 mph14.5 kmh 30.07 in1018.3 mb 0.00 in0.0 mm 0.00 in0.0 mm 2.07 in52.6 mm
02:38 PM 69.5°F20.8°C 65.5°F18.6°C 87% 4.0 mph E6.4 kmh E 9.0 mph14.5 kmh 30.07 in1018.3 mb 0.00 in0.0 mm 0.00 in0.0 mm 2.07 in52.6 mm
02:40 PM 69.6°F20.9°C 65.6°F18.7°C 87% 4.0 mph E6.4 kmh E 9.0 mph14.5 kmh 30.07 in1018.3 mb 0.00 in0.0 mm 0.00 in0.0 mm 2.07 in52.6 mm
02:42 PM 69.6°F20.9°C 65.6°F18.7°C 87% 4.0 mph E6.4 kmh E 9.0 mph14.5 kmh 30.07 in1018.3 mb 0.00 in0.0 mm 0.00 in0.0 mm 2.07 in52.6 mm
02:44 PM 69.6°F20.9°C 65.6°F18.7°C 87% 4.0 mph E6.4 kmh E 9.0 mph14.5 kmh 30.07 in1018.3 mb 0.00 in0.0 mm 0.00 in0.0 mm 2.07 in52.6 mm
02:46 PM 69.7°F20.9°C 65.7°F18.7°C 87% 4.0 mph E6.4 kmh E 9.0 mph14.5 kmh 30.07 in1018.3 mb 0.00 in0.0 mm 0.00 in0.0 mm 2.07 in52.6 mm
02:48 PM 69.7°F20.9°C 65.7°F18.7°C 87% 4.0 mph E6.4 kmh E 9.0 mph14.5 kmh 30.07 in1018.3 mb 0.00 in0.0 mm 0.00 in0.0 mm 2.07 in52.6 mm
02:50 PM 69.8°F21.0°C 65.8°F18.8°C 87% 3.0 mph E4.8 kmh E 7.0 mph11.3 kmh 30.07 in1018.3 mb 0.00 in0.0 mm 0.00 in0.0 mm 2.07 in52.6 mm
02:52 PM 70.0°F21.1°C 66.0°F18.9°C 87% 3.0 mph E4.8 kmh E 8.0 mph12.9 kmh 30.07 in1018.3 mb 0.00 in0.0 mm 0.00 in0.0 mm 2.07 in52.6 mm
02:54 PM 69.9°F21.1°C 65.9°F18.8°C 87% 3.0 mph E4.8 kmh E 8.0 mph12.9 kmh 30.07 in1018.3 mb 0.00 in0.0 mm 0.00 in0.0 mm 2.07 in52.6 mm
02:56 PM 69.9°F21.1°C 65.5°F18.6°C 86% 3.0 mph E4.8 kmh E 8.0 mph12.9 kmh 30.07 in1018.3 mb 0.00 in0.0 mm 0.00 in0.0 mm 2.07 in52.6 mm
02:58 PM 69.8°F21.0°C 65.8°F18.8°C 87% 2.0 mph E3.2 kmh E 8.0 mph12.9 kmh 30.07 in1018.3 mb 0.00 in0.0 mm 0.00 in0.0 mm 2.07 in52.6 mm
03:00 PM 69.8°F21.0°C 65.8°F18.8°C 87% 3.0 mph E4.8 kmh E 8.0 mph12.9 kmh 30.07 in1018.3 mb 0.00 in0.0 mm 0.00 in0.0 mm 2.07 in52.6 mm
03:02 PM 69.7°F20.9°C 65.7°F18.7°C 87% 3.0 mph E4.8 kmh E 7.0 mph11.3 kmh 30.08 in1018.6 mb 0.00 in0.0 mm 0.00 in0.0 mm 2.07 in52.6 mm
03:04 PM 69.5°F20.8°C 65.5°F18.6°C 87% 3.0 mph E4.8 kmh E 8.0 mph12.9 kmh 30.08 in1018.6 mb 0.00 in0.0 mm 0.00 in0.0 mm 2.07 in52.6 mm
03:06 PM 69.5°F20.8°C 65.5°F18.6°C 87% 3.0 mph E4.8 kmh E 8.0 mph12.9 kmh 30.08 in1018.6 mb 0.00 in0.0 mm 0.00 in0.0 mm 2.07 in52.6 mm
03:08 PM 69.4°F20.8°C 65.4°F18.6°C 87% 3.0 mph E4.8 kmh E 8.0 mph12.9 kmh 30.08 in1018.6 mb 0.00 in0.0 mm 0.00 in0.0 mm 2.07 in52.6 mm
03:10 PM 69.4°F20.8°C 65.4°F18.6°C 87% 4.0 mph E6.4 kmh E 8.0 mph12.9 kmh 30.08 in1018.6 mb 0.00 in0.0 mm 0.00 in0.0 mm 2.07 in52.6 mm
03:12 PM 69.3°F20.7°C 65.3°F18.5°C 87% 4.0 mph E6.4 kmh E 8.0 mph12.9 kmh 30.08 in1018.6 mb 0.00 in0.0 mm 0.00 in0.0 mm 2.07 in52.6 mm
03:14 PM 69.3°F20.7°C 65.3°F18.5°C 87% 3.0 mph E4.8 kmh E 8.0 mph12.9 kmh 30.08 in1018.6 mb 0.00 in0.0 mm 0.00 in0.0 mm 2.07 in52.6 mm
03:16 PM 69.3°F20.7°C 65.3°F18.5°C 87% 3.0 mph E4.8 kmh E 8.0 mph12.9 kmh 30.08 in1018.6 mb 0.00 in0.0 mm 0.00 in0.0 mm 2.07 in52.6 mm
03:18 PM 69.5°F20.8°C 65.8°F18.8°C 88% 3.0 mph E4.8 kmh E 8.0 mph12.9 kmh 30.08 in1018.6 mb 0.00 in0.0 mm 0.00 in0.0 mm 2.07 in52.6 mm
03:20 PM 69.4°F20.8°C 65.4°F18.6°C 87% 3.0 mph E4.8 kmh E 8.0 mph12.9 kmh 30.08 in1018.6 mb 0.00 in0.0 mm 0.00 in0.0 mm 2.07 in52.6 mm
03:22 PM 69.4°F20.8°C 65.0°F18.3°C 86% 3.0 mph E4.8 kmh E 10.0 mph16.1 kmh 30.08 in1018.6 mb 0.00 in0.0 mm 0.00 in0.0 mm 2.07 in52.6 mm
03:24 PM 69.3°F20.7°C 64.9°F18.3°C 86% 4.0 mph E6.4 kmh E 10.0 mph16.1 kmh 30.08 in1018.6 mb 0.00 in0.0 mm 0.00 in0.0 mm 2.07 in52.6 mm
03:26 PM 69.2°F20.7°C 64.8°F18.2°C 86% 4.0 mph E6.4 kmh E 10.0 mph16.1 kmh 30.08 in1018.6 mb 0.00 in0.0 mm 0.00 in0.0 mm 2.07 in52.6 mm
03:28 PM 69.1°F20.6°C 64.7°F18.2°C 86% 4.0 mph E6.4 kmh E 10.0 mph16.1 kmh 30.08 in1018.6 mb 0.00 in0.0 mm 0.00 in0.0 mm 2.07 in52.6 mm
03:30 PM 69.1°F20.6°C 65.1°F18.4°C 87% 4.0 mph E6.4 kmh E 10.0 mph16.1 kmh 30.08 in1018.6 mb 0.00 in0.0 mm 0.00 in0.0 mm 2.07 in52.6 mm
03:32 PM 69.2°F20.7°C 65.2°F18.4°C 87% 3.0 mph E4.8 kmh E 8.0 mph12.9 kmh 30.08 in1018.6 mb 0.00 in0.0 mm 0.00 in0.0 mm 2.07 in52.6 mm
03:34 PM 69.3°F20.7°C 65.3°F18.5°C 87% 3.0 mph E4.8 kmh E 8.0 mph12.9 kmh 30.08 in1018.6 mb 0.00 in0.0 mm 0.00 in0.0 mm 2.07 in52.6 mm
03:36 PM 69.3°F20.7°C 65.3°F18.5°C 87% 3.0 mph E4.8 kmh E 8.0 mph12.9 kmh 30.08 in1018.6 mb 0.00 in0.0 mm 0.00 in0.0 mm 2.07 in52.6 mm
03:38 PM 69.2°F20.7°C 64.8°F18.2°C 86% 3.0 mph E4.8 kmh E 7.0 mph11.3 kmh 30.08 in1018.6 mb 0.00 in0.0 mm 0.00 in0.0 mm 2.07 in52.6 mm
03:40 PM 69.1°F20.6°C 65.1°F18.4°C 87% 3.0 mph E4.8 kmh E 7.0 mph11.3 kmh 30.08 in1018.6 mb 0.00 in0.0 mm 0.00 in0.0 mm 2.07 in52.6 mm
03:42 PM 69.0°F20.6°C 65.0°F18.3°C 87% 3.0 mph E4.8 kmh E 7.0 mph11.3 kmh 30.08 in1018.6 mb 0.00 in0.0 mm 0.00 in0.0 mm 2.07 in52.6 mm
03:44 PM 68.9°F20.5°C 64.9°F18.3°C 87% 3.0 mph E4.8 kmh E 7.0 mph11.3 kmh 30.08 in1018.6 mb 0.00 in0.0 mm 0.00 in0.0 mm 2.07 in52.6 mm
03:46 PM 68.9°F20.5°C 64.9°F18.3°C 87% 3.0 mph E4.8 kmh E 8.0 mph12.9 kmh 30.09 in1019.0 mb 0.00 in0.0 mm 0.00 in0.0 mm 2.07 in52.6 mm
03:48 PM 68.7°F20.4°C 64.7°F18.2°C 87% 3.0 mph E4.8 kmh E 8.0 mph12.9 kmh 30.09 in1019.0 mb 0.00 in0.0 mm 0.00 in0.0 mm 2.07 in52.6 mm
03:50 PM 68.6°F20.3°C 64.6°F18.1°C 87% 3.0 mph E4.8 kmh E 8.0 mph12.9 kmh 30.09 in1019.0 mb 0.00 in0.0 mm 0.00 in0.0 mm 2.07 in52.6 mm
03:52 PM 68.5°F20.3°C 64.5°F18.1°C 87% 3.0 mph E4.8 kmh E 8.0 mph12.9 kmh 30.09 in1019.0 mb 0.00 in0.0 mm 0.00 in0.0 mm 2.07 in52.6 mm
03:54 PM 68.3°F20.2°C 64.3°F17.9°C 87% 2.0 mph E3.2 kmh E 8.0 mph12.9 kmh 30.09 in1019.0 mb 0.00 in0.0 mm 0.00 in0.0 mm 2.07 in52.6 mm
03:56 PM 68.3°F20.2°C 64.6°F18.1°C 88% 2.0 mph ENE3.2 kmh ENE 7.0 mph11.3 kmh 30.09 in1019.0 mb 0.00 in0.0 mm 0.00 in0.0 mm 2.07 in52.6 mm
03:58 PM 68.1°F20.1°C 64.4°F18.0°C 88% 2.0 mph ENE3.2 kmh ENE 6.0 mph9.7 kmh 30.09 in1019.0 mb 0.00 in0.0 mm 0.00 in0.0 mm 2.07 in52.6 mm
04:00 PM 68.0°F20.0°C 64.3°F17.9°C 88% 1.0 mph ENE1.6 kmh ENE 5.0 mph8.0 kmh 30.09 in1019.0 mb 0.00 in0.0 mm 0.00 in0.0 mm 2.07 in52.6 mm
04:02 PM 67.9°F19.9°C 64.2°F17.9°C 88% 2.0 mph ENE3.2 kmh ENE 5.0 mph8.0 kmh 30.09 in1019.0 mb 0.00 in0.0 mm 0.00 in0.0 mm 2.07 in52.6 mm
04:04 PM 67.8°F19.9°C 64.1°F17.8°C 88% 2.0 mph E3.2 kmh E 6.0 mph9.7 kmh 30.09 in1019.0 mb 0.00 in0.0 mm 0.00 in0.0 mm 2.07 in52.6 mm
04:06 PM 67.6°F19.8°C 64.2°F17.9°C 89% 2.0 mph E3.2 kmh E 7.0 mph11.3 kmh 30.09 in1019.0 mb 0.00 in0.0 mm 0.00 in0.0 mm 2.07 in52.6 mm
04:08 PM 67.4°F19.7°C 63.7°F17.6°C 88% 3.0 mph E4.8 kmh E 7.0 mph11.3 kmh 30.09 in1019.0 mb 0.00 in0.0 mm 0.00 in0.0 mm 2.07 in52.6 mm
04:10 PM 67.1°F19.5°C 63.4°F17.4°C 88% 3.0 mph E4.8 kmh E 8.0 mph12.9 kmh 30.09 in1019.0 mb 0.00 in0.0 mm 0.00 in0.0 mm 2.07 in52.6 mm
04:12 PM 67.0°F19.4°C 63.6°F17.6°C 89% 3.0 mph E4.8 kmh E 8.0 mph12.9 kmh 30.09 in1019.0 mb 0.00 in0.0 mm 0.00 in0.0 mm 2.07 in52.6 mm
04:14 PM 66.9°F19.4°C 63.6°F17.6°C 89% 3.0 mph E4.8 kmh E 8.0 mph12.9 kmh 30.09 in1019.0 mb 0.00 in0.0 mm 0.00 in0.0 mm 2.07 in52.6 mm
04:16 PM 66.8°F19.3°C 63.5°F17.5°C 89% 3.0 mph E4.8 kmh E 8.0 mph12.9 kmh 30.09 in1019.0 mb 0.00 in0.0 mm 0.00 in0.0 mm 2.07 in52.6 mm
04:18 PM 66.7°F19.3°C 63.4°F17.4°C 89% 3.0 mph E4.8 kmh E 8.0 mph12.9 kmh 30.09 in1019.0 mb 0.00 in0.0 mm 0.00 in0.0 mm 2.07 in52.6 mm
04:20 PM 66.6°F19.2°C 63.3°F17.4°C 89% 3.0 mph E4.8 kmh E 6.0 mph9.7 kmh 30.09 in1019.0 mb 0.00 in0.0 mm 0.00 in0.0 mm 2.07 in52.6 mm
04:22 PM 66.5°F19.2°C 63.2°F17.3°C 89% 3.0 mph E4.8 kmh E 7.0 mph11.3 kmh 30.09 in1019.0 mb 0.00 in0.0 mm 0.00 in0.0 mm 2.07 in52.6 mm
04:24 PM 66.4°F19.1°C 63.1°F17.3°C 89% 3.0 mph E4.8 kmh E 7.0 mph11.3 kmh 30.09 in1019.0 mb 0.00 in0.0 mm 0.00 in0.0 mm 2.07 in52.6 mm
04:26 PM 66.2°F19.0°C 62.9°F17.2°C 89% 3.0 mph E4.8 kmh E 7.0 mph11.3 kmh 30.09 in1019.0 mb 0.00 in0.0 mm 0.00 in0.0 mm 2.07 in52.6 mm
04:28 PM 66.1°F18.9°C 62.8°F17.1°C 89% 3.0 mph E4.8 kmh E 7.0 mph11.3 kmh 30.09 in1019.0 mb 0.00 in0.0 mm 0.00 in0.0 mm 2.07 in52.6 mm
04:30 PM 66.0°F18.9°C 62.7°F17.1°C 89% 3.0 mph E4.8 kmh E 8.0 mph12.9 kmh 30.09 in1019.0 mb 0.00 in0.0 mm 0.00 in0.0 mm 2.07 in52.6 mm
04:32 PM 65.9°F18.8°C 62.6°F17.0°C 89% 3.0 mph E4.8 kmh E 8.0 mph12.9 kmh 30.09 in1019.0 mb 0.00 in0.0 mm 0.00 in0.0 mm 2.07 in52.6 mm
04:34 PM 65.9°F18.8°C 62.6°F17.0°C 89% 3.0 mph E4.8 kmh E 8.0 mph12.9 kmh 30.09 in1019.0 mb 0.00 in0.0 mm 0.00 in0.0 mm 2.07 in52.6 mm
04:36 PM 65.8°F18.8°C 62.5°F16.9°C 89% 4.0 mph E6.4 kmh E 10.0 mph16.1 kmh 30.09 in1019.0 mb 0.00 in0.0 mm 0.00 in0.0 mm 2.07 in52.6 mm
04:38 PM 65.7°F18.7°C 62.4°F16.9°C 89% 4.0 mph E6.4 kmh E 10.0 mph16.1 kmh 30.09 in1019.0 mb 0.00 in0.0 mm 0.00 in0.0 mm 2.07 in52.6 mm
04:40 PM 65.7°F18.7°C 62.4°F16.9°C 89% 4.0 mph E6.4 kmh E 10.0 mph16.1 kmh 30.09 in1019.0 mb 0.00 in0.0 mm 0.00 in0.0 mm 2.07 in52.6 mm
04:42 PM 65.7°F18.7°C 62.4°F16.9°C 89% 5.0 mph E8.0 kmh E 10.0 mph16.1 kmh 30.09 in1019.0 mb 0.00 in0.0 mm 0.00 in0.0 mm 2.07 in52.6 mm
04:44 PM 65.6°F18.7°C 62.3°F16.8°C 89% 5.0 mph E8.0 kmh E 10.0 mph16.1 kmh 30.09 in1019.0 mb 0.00 in0.0 mm 0.00 in0.0 mm 2.07 in52.6 mm
04:46 PM 65.6°F18.7°C 62.3°F16.8°C 89% 4.0 mph E6.4 kmh E 9.0 mph14.5 kmh 30.09 in1019.0 mb 0.00 in0.0 mm 0.00 in0.0 mm 2.07 in52.6 mm
04:48 PM 65.6°F18.7°C 62.3°F16.8°C 89% 4.0 mph E6.4 kmh E 8.0 mph12.9 kmh 30.09 in1019.0 mb 0.00 in0.0 mm 0.00 in0.0 mm 2.07 in52.6 mm
04:50 PM 65.5°F18.6°C 62.2°F16.8°C 89% 4.0 mph E6.4 kmh E 8.0 mph12.9 kmh 30.09 in1019.0 mb 0.00 in0.0 mm 0.00 in0.0 mm 2.07 in52.6 mm
04:52 PM 65.5°F18.6°C 62.2°F16.8°C 89% 3.0 mph E4.8 kmh E 7.0 mph11.3 kmh 30.09 in1019.0 mb 0.00 in0.0 mm 0.00 in0.0 mm 2.07 in52.6 mm
04:54 PM 65.4°F18.6°C 62.1°F16.7°C 89% 4.0 mph E6.4 kmh E 11.0 mph17.7 kmh 30.09 in1019.0 mb 0.00 in0.0 mm 0.00 in0.0 mm 2.07 in52.6 mm
04:56 PM 65.4°F18.6°C 62.1°F16.7°C 89% 4.0 mph ENE6.4 kmh ENE 11.0 mph17.7 kmh 30.09 in1019.0 mb 0.00 in0.0 mm 0.00 in0.0 mm 2.07 in52.6 mm
04:58 PM 65.3°F18.5°C 62.0°F16.7°C 89% 4.0 mph E6.4 kmh E 11.0 mph17.7 kmh 30.09 in1019.0 mb 0.00 in0.0 mm 0.00 in0.0 mm 2.07 in52.6 mm
05:00 PM 65.3°F18.5°C 62.0°F16.7°C 89% 4.0 mph ENE6.4 kmh ENE 11.0 mph17.7 kmh 30.09 in1019.0 mb 0.00 in0.0 mm 0.00 in0.0 mm 2.07 in52.6 mm
05:02 PM 65.2°F18.4°C 61.9°F16.6°C 89% 4.0 mph E6.4 kmh E 11.0 mph17.7 kmh 30.09 in1019.0 mb 0.00 in0.0 mm 0.00 in0.0 mm 2.07 in52.6 mm
05:04 PM 65.2°F18.4°C 61.9°F16.6°C 89% 4.0 mph E6.4 kmh E 8.0 mph12.9 kmh 30.09 in1019.0 mb 0.00 in0.0 mm 0.00 in0.0 mm 2.07 in52.6 mm
05:06 PM 65.0°F18.3°C 61.4°F16.3°C 88% 4.0 mph E6.4 kmh E 10.0 mph16.1 kmh 30.09 in1019.0 mb 0.00 in0.0 mm 0.00 in0.0 mm 2.07 in52.6 mm
05:08 PM 65.0°F18.3°C 61.4°F16.3°C 88% 4.0 mph E6.4 kmh E 10.0 mph16.1 kmh 30.09 in1019.0 mb 0.00 in0.0 mm 0.00 in0.0 mm 2.07 in52.6 mm
05:10 PM 65.0°F18.3°C 61.4°F16.3°C 88% 4.0 mph E6.4 kmh E 10.0 mph16.1 kmh 30.09 in1019.0 mb 0.00 in0.0 mm 0.00 in0.0 mm 2.07 in52.6 mm
05:12 PM 64.9°F18.3°C 61.3°F16.3°C 88% 4.0 mph E6.4 kmh E 10.0 mph16.1 kmh 30.09 in1019.0 mb 0.00 in0.0 mm 0.00 in0.0 mm 2.07 in52.6 mm
05:14 PM 64.8°F18.2°C 61.2°F16.2°C 88% 4.0 mph E6.4 kmh E 10.0 mph16.1 kmh 30.09 in1019.0 mb 0.00 in0.0 mm 0.00 in0.0 mm 2.07 in52.6 mm
05:16 PM 64.8°F18.2°C 61.2°F16.2°C 88% 4.0 mph E6.4 kmh E 10.0 mph16.1 kmh 30.09 in1019.0 mb 0.00 in0.0 mm 0.00 in0.0 mm 2.07 in52.6 mm
05:18 PM 64.8°F18.2°C 61.2°F16.2°C 88% 5.0 mph E8.0 kmh E 10.0 mph16.1 kmh 30.09 in1019.0 mb 0.00 in0.0 mm 0.00 in0.0 mm 2.07 in52.6 mm
05:20 PM 64.7°F18.2°C 61.4°F16.3°C 89% 5.0 mph E8.0 kmh E 10.0 mph16.1 kmh 30.09 in1019.0 mb 0.00 in0.0 mm 0.00 in0.0 mm 2.07 in52.6 mm
05:22 PM 64.7°F18.2°C 61.4°F16.3°C 89% 5.0 mph E8.0 kmh E 9.0 mph14.5 kmh 30.09 in1019.0 mb 0.00 in0.0 mm 0.00 in0.0 mm 2.07 in52.6 mm
05:24 PM 64.6°F18.1°C 61.3°F16.3°C 89% 4.0 mph E6.4 kmh E 9.0 mph14.5 kmh 30.09 in1019.0 mb 0.00 in0.0 mm 0.00 in0.0 mm 2.07 in52.6 mm
05:26 PM 64.6°F18.1°C 61.3°F16.3°C 89% 4.0 mph E6.4 kmh E 9.0 mph14.5 kmh 30.09 in1019.0 mb 0.00 in0.0 mm 0.00 in0.0 mm 2.07 in52.6 mm
05:28 PM 64.5°F18.1°C 61.2°F16.2°C 89% 4.0 mph E6.4 kmh E 9.0 mph14.5 kmh 30.09 in1019.0 mb 0.00 in0.0 mm 0.00 in0.0 mm 2.07 in52.6 mm
05:30 PM 64.5°F18.1°C 61.2°F16.2°C 89% 4.0 mph E6.4 kmh E 10.0 mph16.1 kmh 30.09 in1019.0 mb 0.00 in0.0 mm 0.00 in0.0 mm 2.07 in52.6 mm
05:32 PM 64.4°F18.0°C 61.1°F16.2°C 89% 4.0 mph E6.4 kmh E 10.0 mph16.1 kmh 30.09 in1019.0 mb 0.00 in0.0 mm 0.00 in0.0 mm 2.07 in52.6 mm
05:34 PM 64.3°F17.9°C 61.0°F16.1°C 89% 4.0 mph E6.4 kmh E 10.0 mph16.1 kmh 30.09 in1019.0 mb 0.00 in0.0 mm 0.00 in0.0 mm 2.07 in52.6 mm
05:36 PM 64.3°F17.9°C 61.0°F16.1°C 89% 4.0 mph E6.4 kmh E 10.0 mph16.1 kmh 30.09 in1019.0 mb 0.00 in0.0 mm 0.00 in0.0 mm 2.07 in52.6 mm
05:38 PM 64.2°F17.9°C 60.9°F16.1°C 89% 4.0 mph E6.4 kmh E 10.0 mph16.1 kmh 30.09 in1019.0 mb 0.00 in0.0 mm 0.00 in0.0 mm 2.07 in52.6 mm
05:40 PM 64.2°F17.9°C 60.9°F16.1°C 89% 4.0 mph E6.4 kmh E 10.0 mph16.1 kmh 30.09 in1019.0 mb 0.00 in0.0 mm 0.00 in0.0 mm 2.07 in52.6 mm
05:44 PM 64.1°F17.8°C 60.8°F16.0°C 89% 4.0 mph E6.4 kmh E 10.0 mph16.1 kmh 30.10 in1019.3 mb 0.00 in0.0 mm 0.00 in0.0 mm 2.07 in52.6 mm
05:46 PM 64.0°F17.8°C 61.0°F16.1°C 90% 4.0 mph E6.4 kmh E 10.0 mph16.1 kmh 30.09 in1019.0 mb 0.00 in0.0 mm 0.00 in0.0 mm 2.07 in52.6 mm
05:48 PM 64.0°F17.8°C 61.0°F16.1°C 90% 4.0 mph E6.4 kmh E 10.0 mph16.1 kmh 30.10 in1019.3 mb 0.00 in0.0 mm 0.00 in0.0 mm 2.07 in52.6 mm
05:50 PM 64.0°F17.8°C 61.0°F16.1°C 90% 4.0 mph E6.4 kmh E 10.0 mph16.1 kmh 30.10 in1019.3 mb 0.00 in0.0 mm 0.00 in0.0 mm 2.07 in52.6 mm
05:52 PM 63.9°F17.7°C 60.9°F16.1°C 90% 4.0 mph E6.4 kmh E 10.0 mph16.1 kmh 30.10 in1019.3 mb 0.00 in0.0 mm 0.00 in0.0 mm 2.07 in52.6 mm
05:54 PM 63.8°F17.7°C 60.8°F16.0°C 90% 4.0 mph ENE6.4 kmh ENE 10.0 mph16.1 kmh 30.10 in1019.3 mb 0.00 in0.0 mm 0.00 in0.0 mm 2.07 in52.6 mm
05:56 PM 63.8°F17.7°C 60.8°F16.0°C 90% 4.0 mph E6.4 kmh E 10.0 mph16.1 kmh 30.10 in1019.3 mb 0.00 in0.0 mm 0.00 in0.0 mm 2.07 in52.6 mm
05:58 PM 63.7°F17.6°C 60.7°F15.9°C 90% 4.0 mph E6.4 kmh E 7.0 mph11.3 kmh 30.10 in1019.3 mb 0.00 in0.0 mm 0.00 in0.0 mm 2.07 in52.6 mm
06:00 PM 63.7°F17.6°C 60.7°F15.9°C 90% 4.0 mph E6.4 kmh E 7.0 mph11.3 kmh 30.10 in1019.3 mb 0.00 in0.0 mm 0.00 in0.0 mm 2.07 in52.6 mm
06:02 PM 63.7°F17.6°C 60.7°F15.9°C 90% 4.0 mph E6.4 kmh E 7.0 mph11.3 kmh 30.09 in1019.0 mb 0.00 in0.0 mm 0.00 in0.0 mm 2.07 in52.6 mm
06:04 PM 63.6°F17.6°C 60.6°F15.9°C 90% 4.0 mph E6.4 kmh E 7.0 mph11.3 kmh 30.10 in1019.3 mb 0.00 in0.0 mm 0.00 in0.0 mm 2.07 in52.6 mm
06:06 PM 63.6°F17.6°C 60.9°F16.1°C 91% 4.0 mph E6.4 kmh E 7.0 mph11.3 kmh 30.10 in1019.3 mb 0.00 in0.0 mm 0.00 in0.0 mm 2.07 in52.6 mm
06:08 PM 63.6°F17.6°C 60.9°F16.1°C 91% 4.0 mph E6.4 kmh E 7.0 mph11.3 kmh 30.10 in1019.3 mb 0.00 in0.0 mm 0.00 in0.0 mm 2.07 in52.6 mm
06:10 PM 63.6°F17.6°C 60.9°F16.1°C 91% 4.0 mph E6.4 kmh E 7.0 mph11.3 kmh 30.10 in1019.3 mb 0.00 in0.0 mm 0.00 in0.0 mm 2.07 in52.6 mm
06:12 PM 63.5°F17.5°C 60.8°F16.0°C 91% 3.0 mph ENE4.8 kmh ENE 7.0 mph11.3 kmh 30.10 in1019.3 mb 0.00 in0.0 mm 0.00 in0.0 mm 2.07 in52.6 mm
06:14 PM 63.5°F17.5°C 60.8°F16.0°C 91% 3.0 mph E4.8 kmh E 7.0 mph11.3 kmh 30.10 in1019.3 mb 0.00 in0.0 mm 0.00 in0.0 mm 2.07 in52.6 mm
06:16 PM 63.5°F17.5°C 60.8°F16.0°C 91% 4.0 mph E6.4 kmh E 7.0 mph11.3 kmh 30.10 in1019.3 mb 0.00 in0.0 mm 0.00 in0.0 mm 2.07 in52.6 mm
06:18 PM 63.5°F17.5°C 60.8°F16.0°C 91% 3.0 mph E4.8 kmh E 7.0 mph11.3 kmh 30.10 in1019.3 mb 0.00 in0.0 mm 0.00 in0.0 mm 2.07 in52.6 mm
06:20 PM 63.5°F17.5°C 60.8°F16.0°C 91% 3.0 mph E4.8 kmh E 7.0 mph11.3 kmh 30.10 in1019.3 mb 0.00 in0.0 mm 0.00 in0.0 mm 2.07 in52.6 mm
06:22 PM 63.5°F17.5°C 60.8°F16.0°C 91% 3.0 mph E4.8 kmh E 7.0 mph11.3 kmh 30.10 in1019.3 mb 0.00 in0.0 mm 0.00 in0.0 mm 2.07 in52.6 mm
06:24 PM 63.5°F17.5°C 60.8°F16.0°C 91% 3.0 mph E4.8 kmh E 7.0 mph11.3 kmh 30.10 in1019.3 mb 0.00 in0.0 mm 0.00 in0.0 mm 2.07 in52.6 mm
06:26 PM 63.5°F17.5°C 60.8°F16.0°C 91% 3.0 mph E4.8 kmh E 6.0 mph9.7 kmh 30.10 in1019.3 mb 0.00 in0.0 mm 0.00 in0.0 mm 2.07 in52.6 mm
06:28 PM 63.5°F17.5°C 60.8°F16.0°C 91% 3.0 mph E4.8 kmh E 7.0 mph11.3 kmh 30.10 in1019.3 mb 0.00 in0.0 mm 0.00 in0.0 mm 2.07 in52.6 mm
06:30 PM 63.5°F17.5°C 60.8°F16.0°C 91% 3.0 mph E4.8 kmh E 7.0 mph11.3 kmh 30.10 in1019.3 mb 0.00 in0.0 mm 0.00 in0.0 mm 2.07 in52.6 mm
06:32 PM 63.5°F17.5°C 60.8°F16.0°C 91% 3.0 mph E4.8 kmh E 7.0 mph11.3 kmh 30.10 in1019.3 mb 0.00 in0.0 mm 0.00 in0.0 mm 2.07 in52.6 mm
06:34 PM 63.5°F17.5°C 60.8°F16.0°C 91% 3.0 mph E4.8 kmh E 8.0 mph12.9 kmh 30.10 in1019.3 mb 0.00 in0.0 mm 0.00 in0.0 mm 2.07 in52.6 mm
06:36 PM 63.5°F17.5°C 60.8°F16.0°C 91% 3.0 mph E4.8 kmh E 8.0 mph12.9 kmh 30.10 in1019.3 mb 0.00 in0.0 mm 0.00 in0.0 mm 2.07 in52.6 mm
06:38 PM 63.5°F17.5°C 60.8°F16.0°C 91% 3.0 mph E4.8 kmh E 8.0 mph12.9 kmh 30.11 in1019.6 mb 0.00 in0.0 mm 0.00 in0.0 mm 2.07 in52.6 mm
06:40 PM 63.6°F17.6°C 60.9°F16.1°C 91% 3.0 mph E4.8 kmh E 8.0 mph12.9 kmh 30.11 in1019.6 mb 0.00 in0.0 mm 0.00 in0.0 mm 2.07 in52.6 mm
06:42 PM 63.6°F17.6°C 60.9°F16.1°C 91% 3.0 mph E4.8 kmh E 8.0 mph12.9 kmh 30.11 in1019.6 mb 0.00 in0.0 mm 0.00 in0.0 mm 2.07 in52.6 mm
06:44 PM 63.6°F17.6°C 61.2°F16.2°C 92% 3.0 mph E4.8 kmh E 8.0 mph12.9 kmh 30.11 in1019.6 mb 0.00 in0.0 mm 0.00 in0.0 mm 2.07 in52.6 mm
06:46 PM 63.6°F17.6°C 61.2°F16.2°C 92% 3.0 mph E4.8 kmh E 8.0 mph12.9 kmh 30.11 in1019.6 mb 0.00 in0.0 mm 0.00 in0.0 mm 2.07 in52.6 mm
06:48 PM 63.6°F17.6°C 61.2°F16.2°C 92% 3.0 mph E4.8 kmh E 8.0 mph12.9 kmh 30.11 in1019.6 mb 0.00 in0.0 mm 0.00 in0.0 mm 2.07 in52.6 mm
06:50 PM 63.6°F17.6°C 61.2°F16.2°C 92% 3.0 mph E4.8 kmh E 8.0 mph12.9 kmh 30.11 in1019.6 mb 0.00 in0.0 mm 0.00 in0.0 mm 2.07 in52.6 mm
06:52 PM 63.7°F17.6°C 61.3°F16.3°C 92% 3.0 mph E4.8 kmh E 8.0 mph12.9 kmh 30.11 in1019.6 mb 0.00 in0.0 mm 0.00 in0.0 mm 2.07 in52.6 mm
06:54 PM 63.7°F17.6°C 61.3°F16.3°C 92% 4.0 mph E6.4 kmh E 8.0 mph12.9 kmh 30.12 in1020.0 mb 0.00 in0.0 mm 0.00 in0.0 mm 2.07 in52.6 mm
06:56 PM 63.7°F17.6°C 61.3°F16.3°C 92% 4.0 mph E6.4 kmh E 8.0 mph12.9 kmh 30.12 in1020.0 mb 0.00 in0.0 mm 0.00 in0.0 mm 2.07 in52.6 mm
06:58 PM 63.7°F17.6°C 61.3°F16.3°C 92% 4.0 mph E6.4 kmh E 8.0 mph12.9 kmh 30.12 in1020.0 mb 0.00 in0.0 mm 0.00 in0.0 mm 2.07 in52.6 mm
07:00 PM 63.7°F17.6°C 61.3°F16.3°C 92% 3.0 mph E4.8 kmh E 8.0 mph12.9 kmh 30.12 in1020.0 mb 0.00 in0.0 mm 0.00 in0.0 mm 2.07 in52.6 mm
07:02 PM 63.7°F17.6°C 61.3°F16.3°C 92% 3.0 mph E4.8 kmh E 6.0 mph9.7 kmh 30.12 in1020.0 mb 0.00 in0.0 mm 0.00 in0.0 mm 2.07 in52.6 mm
07:04 PM 63.7°F17.6°C 61.3°F16.3°C 92% 3.0 mph E4.8 kmh E 6.0 mph9.7 kmh 30.12 in1020.0 mb 0.00 in0.0 mm 0.00 in0.0 mm 2.07 in52.6 mm
07:06 PM 63.7°F17.6°C 61.3°F16.3°C 92% 3.0 mph E4.8 kmh E 7.0 mph11.3 kmh 30.12 in1020.0 mb 0.00 in0.0 mm 0.00 in0.0 mm 2.07 in52.6 mm
07:08 PM 63.7°F17.6°C 61.3°F16.3°C 92% 3.0 mph E4.8 kmh E 7.0 mph11.3 kmh 30.12 in1020.0 mb 0.00 in0.0 mm 0.00 in0.0 mm 2.07 in52.6 mm
07:10 PM 63.7°F17.6°C 61.3°F16.3°C 92% 3.0 mph E4.8 kmh E 7.0 mph11.3 kmh 30.12 in1020.0 mb 0.00 in0.0 mm 0.00 in0.0 mm 2.07 in52.6 mm
07:12 PM 63.7°F17.6°C 61.3°F16.3°C 92% 3.0 mph E4.8 kmh E 7.0 mph11.3 kmh 30.12 in1020.0 mb 0.00 in0.0 mm 0.00 in0.0 mm 2.07 in52.6 mm
07:14 PM 63.8°F17.7°C 61.4°F16.3°C 92% 3.0 mph E4.8 kmh E 7.0 mph11.3 kmh 30.12 in1020.0 mb 0.00 in0.0 mm 0.00 in0.0 mm 2.07 in52.6 mm
07:16 PM 63.7°F17.6°C 61.3°F16.3°C 92% 3.0 mph E4.8 kmh E 7.0 mph11.3 kmh 30.12 in1020.0 mb 0.00 in0.0 mm 0.00 in0.0 mm 2.07 in52.6 mm
07:18 PM 63.7°F17.6°C 61.3°F16.3°C 92% 3.0 mph E4.8 kmh E 7.0 mph11.3 kmh 30.12 in1020.0 mb 0.00 in0.0 mm 0.00 in0.0 mm 2.07 in52.6 mm
07:20 PM 63.7°F17.6°C 61.3°F16.3°C 92% 3.0 mph E4.8 kmh E 6.0 mph9.7 kmh 30.12 in1020.0 mb 0.00 in0.0 mm 0.00 in0.0 mm 2.07 in52.6 mm
07:22 PM 63.7°F17.6°C 61.3°F16.3°C 92% 3.0 mph E4.8 kmh E 7.0 mph11.3 kmh 30.12 in1020.0 mb 0.00 in0.0 mm 0.00 in0.0 mm 2.07 in52.6 mm
07:24 PM 63.7°F17.6°C 61.3°F16.3°C 92% 3.0 mph E4.8 kmh E 7.0 mph11.3 kmh 30.12 in1020.0 mb 0.00 in0.0 mm 0.00 in0.0 mm 2.07 in52.6 mm
07:26 PM 63.7°F17.6°C 61.3°F16.3°C 92% 3.0 mph E4.8 kmh E 7.0 mph11.3 kmh 30.12 in1020.0 mb 0.00 in0.0 mm 0.00 in0.0 mm 2.07 in52.6 mm
07:28 PM 63.7°F17.6°C 61.3°F16.3°C 92% 3.0 mph E4.8 kmh E 7.0 mph11.3 kmh 30.12 in1020.0 mb 0.00 in0.0 mm 0.00 in0.0 mm 2.07 in52.6 mm
07:30 PM 63.6°F17.6°C 61.2°F16.2°C 92% 3.0 mph E4.8 kmh E 7.0 mph11.3 kmh 30.12 in1020.0 mb 0.00 in0.0 mm 0.00 in0.0 mm 2.07 in52.6 mm
07:32 PM 63.6°F17.6°C 61.2°F16.2°C 92% 3.0 mph E4.8 kmh E 7.0 mph11.3 kmh 30.13 in1020.3 mb 0.00 in0.0 mm 0.00 in0.0 mm 2.07 in52.6 mm
07:34 PM 63.6°F17.6°C 61.2°F16.2°C 92% 3.0 mph E4.8 kmh E 7.0 mph11.3 kmh 30.13 in1020.3 mb 0.00 in0.0 mm 0.00 in0.0 mm 2.07 in52.6 mm
07:36 PM 63.6°F17.6°C 61.2°F16.2°C 92% 3.0 mph E4.8 kmh E 7.0 mph11.3 kmh 30.13 in1020.3 mb 0.00 in0.0 mm 0.00 in0.0 mm 2.07 in52.6 mm
07:38 PM 63.7°F17.6°C 61.3°F16.3°C 92% 3.0 mph E4.8 kmh E 7.0 mph11.3 kmh 30.13 in1020.3 mb 0.00 in0.0 mm 0.00 in0.0 mm 2.07 in52.6 mm
07:40 PM 63.6°F17.6°C 61.2°F16.2°C 92% 3.0 mph E4.8 kmh E 8.0 mph12.9 kmh 30.13 in1020.3 mb 0.00 in0.0 mm 0.00 in0.0 mm 2.07 in52.6 mm
07:42 PM 63.6°F17.6°C 61.2°F16.2°C 92% 4.0 mph E6.4 kmh E 8.0 mph12.9 kmh 30.13 in1020.3 mb 0.00 in0.0 mm 0.00 in0.0 mm 2.07 in52.6 mm
07:44 PM 63.6°F17.6°C 61.2°F16.2°C 92% 3.0 mph ENE4.8 kmh ENE 8.0 mph12.9 kmh 30.13 in1020.3 mb 0.00 in0.0 mm 0.00 in0.0 mm 2.07 in52.6 mm
07:46 PM 63.7°F17.6°C 61.3°F16.3°C 92% 3.0 mph E4.8 kmh E 8.0 mph12.9 kmh 30.14 in1020.7 mb 0.00 in0.0 mm 0.00 in0.0 mm 2.07 in52.6 mm
07:48 PM 63.7°F17.6°C 61.3°F16.3°C 92% 3.0 mph E4.8 kmh E 8.0 mph12.9 kmh 30.14 in1020.7 mb 0.00 in0.0 mm 0.00 in0.0 mm 2.07 in52.6 mm
07:50 PM 63.7°F17.6°C 61.3°F16.3°C 92% 3.0 mph E4.8 kmh E 8.0 mph12.9 kmh 30.14 in1020.7 mb 0.00 in0.0 mm 0.00 in0.0 mm 2.07 in52.6 mm
07:52 PM 63.7°F17.6°C 61.3°F16.3°C 92% 3.0 mph E4.8 kmh E 8.0 mph12.9 kmh 30.14 in1020.7 mb 0.00 in0.0 mm 0.00 in0.0 mm 2.07 in52.6 mm
07:54 PM 63.7°F17.6°C 61.3°F16.3°C 92% 3.0 mph E4.8 kmh E 8.0 mph12.9 kmh 30.14 in1020.7 mb 0.00 in0.0 mm 0.00 in0.0 mm 2.07 in52.6 mm
07:56 PM 63.7°F17.6°C 61.3°F16.3°C 92% 3.0 mph E4.8 kmh E 7.0 mph11.3 kmh 30.14 in1020.7 mb 0.00 in0.0 mm 0.00 in0.0 mm 2.07 in52.6 mm
07:58 PM 63.7°F17.6°C 61.3°F16.3°C 92% 3.0 mph E4.8 kmh E 7.0 mph11.3 kmh 30.14 in1020.7 mb 0.00 in0.0 mm 0.00 in0.0 mm 2.07 in52.6 mm
08:00 PM 63.7°F17.6°C 61.3°F16.3°C 92% 3.0 mph E4.8 kmh E 7.0 mph11.3 kmh 30.14 in1020.7 mb 0.00 in0.0 mm 0.00 in0.0 mm 2.07 in52.6 mm
08:02 PM 63.7°F17.6°C 61.3°F16.3°C 92% 3.0 mph E4.8 kmh E 7.0 mph11.3 kmh 30.14 in1020.7 mb 0.00 in0.0 mm 0.00 in0.0 mm 2.07 in52.6 mm
08:04 PM 63.7°F17.6°C 61.3°F16.3°C 92% 3.0 mph E4.8 kmh E 7.0 mph11.3 kmh 30.14 in1020.7 mb 0.00 in0.0 mm 0.00 in0.0 mm 2.07 in52.6 mm
08:06 PM 63.8°F17.7°C 61.4°F16.3°C 92% 3.0 mph E4.8 kmh E 7.0 mph11.3 kmh 30.14 in1020.7 mb 0.00 in0.0 mm 0.00 in0.0 mm 2.07 in52.6 mm
08:08 PM 63.8°F17.7°C 61.4°F16.3°C 92% 3.0 mph E4.8 kmh E 7.0 mph11.3 kmh 30.15 in1021.0 mb 0.00 in0.0 mm 0.00 in0.0 mm 2.07 in52.6 mm
08:10 PM 63.8°F17.7°C 61.4°F16.3°C 92% 3.0 mph E4.8 kmh E 7.0 mph11.3 kmh 30.15 in1021.0 mb 0.00 in0.0 mm 0.00 in0.0 mm 2.07 in52.6 mm
08:12 PM 63.8°F17.7°C 61.4°F16.3°C 92% 3.0 mph E4.8 kmh E 7.0 mph11.3 kmh 30.15 in1021.0 mb 0.00 in0.0 mm 0.00 in0.0 mm 2.07 in52.6 mm
08:14 PM 63.8°F17.7°C 61.4°F16.3°C 92% 3.0 mph ENE4.8 kmh ENE 6.0 mph9.7 kmh 30.15 in1021.0 mb 0.00 in0.0 mm 0.00 in0.0 mm 2.07 in52.6 mm
08:16 PM 63.8°F17.7°C 61.4°F16.3°C 92% 2.0 mph ENE3.2 kmh ENE 7.0 mph11.3 kmh 30.15 in1021.0 mb 0.00 in0.0 mm 0.00 in0.0 mm 2.07 in52.6 mm
08:18 PM 63.8°F17.7°C 61.4°F16.3°C 92% 2.0 mph E3.2 kmh E 7.0 mph11.3 kmh 30.14 in1020.7 mb 0.00 in0.0 mm 0.00 in0.0 mm 2.07 in52.6 mm
08:20 PM 63.8°F17.7°C 61.4°F16.3°C 92% 3.0 mph E4.8 kmh E 7.0 mph11.3 kmh 30.15 in1021.0 mb 0.00 in0.0 mm 0.00 in0.0 mm 2.07 in52.6 mm
08:22 PM 63.8°F17.7°C 61.4°F16.3°C 92% 3.0 mph E4.8 kmh E 7.0 mph11.3 kmh 30.15 in1021.0 mb 0.00 in0.0 mm 0.00 in0.0 mm 2.07 in52.6 mm
08:24 PM 63.8°F17.7°C 61.4°F16.3°C 92% 3.0 mph E4.8 kmh E 7.0 mph11.3 kmh 30.15 in1021.0 mb 0.00 in0.0 mm 0.00 in0.0 mm 2.07 in52.6 mm
08:26 PM 63.8°F17.7°C 61.4°F16.3°C 92% 3.0 mph E4.8 kmh E 7.0 mph11.3 kmh 30.15 in1021.0 mb 0.00 in0.0 mm 0.00 in0.0 mm 2.07 in52.6 mm
08:28 PM 63.8°F17.7°C 61.4°F16.3°C 92% 3.0 mph E4.8 kmh E 7.0 mph11.3 kmh 30.15 in1021.0 mb 0.00 in0.0 mm 0.00 in0.0 mm 2.07 in52.6 mm
08:30 PM 63.8°F17.7°C 61.4°F16.3°C 92% 3.0 mph E4.8 kmh E 7.0 mph11.3 kmh 30.15 in1021.0 mb 0.00 in0.0 mm 0.00 in0.0 mm 2.07 in52.6 mm
08:32 PM 63.9°F17.7°C 61.5°F16.4°C 92% 3.0 mph E4.8 kmh E 7.0 mph11.3 kmh 30.14 in1020.7 mb 0.00 in0.0 mm 0.00 in0.0 mm 2.07 in52.6 mm
08:34 PM 63.9°F17.7°C 61.5°F16.4°C 92% 3.0 mph E4.8 kmh E 7.0 mph11.3 kmh 30.15 in1021.0 mb 0.00 in0.0 mm 0.00 in0.0 mm 2.07 in52.6 mm
08:36 PM 63.8°F17.7°C 61.4°F16.3°C 92% 4.0 mph E6.4 kmh E 8.0 mph12.9 kmh 30.15 in1021.0 mb 0.00 in0.0 mm 0.00 in0.0 mm 2.07 in52.6 mm
08:38 PM 63.8°F17.7°C 61.4°F16.3°C 92% 4.0 mph E6.4 kmh E 8.0 mph12.9 kmh 30.14 in1020.7 mb 0.00 in0.0 mm 0.00 in0.0 mm 2.07 in52.6 mm
08:40 PM 63.7°F17.6°C 61.3°F16.3°C 92% 4.0 mph E6.4 kmh E 8.0 mph12.9 kmh 30.15 in1021.0 mb 0.00 in0.0 mm 0.00 in0.0 mm 2.07 in52.6 mm
08:42 PM 63.6°F17.6°C 61.5°F16.4°C 93% 3.0 mph E4.8 kmh E 8.0 mph12.9 kmh 30.15 in1021.0 mb 0.00 in0.0 mm 0.00 in0.0 mm 2.07 in52.6 mm
08:44 PM 63.6°F17.6°C 61.5°F16.4°C 93% 3.0 mph E4.8 kmh E 8.0 mph12.9 kmh 30.15 in1021.0 mb 0.00 in0.0 mm 0.00 in0.0 mm 2.07 in52.6 mm
08:46 PM 63.5°F17.5°C 61.4°F16.3°C 93% 3.0 mph E4.8 kmh E 8.0 mph12.9 kmh 30.14 in1020.7 mb 0.00 in0.0 mm 0.00 in0.0 mm 2.07 in52.6 mm
08:48 PM 63.4°F17.4°C 61.3°F16.3°C 93% 3.0 mph E4.8 kmh E 8.0 mph12.9 kmh 30.15 in1021.0 mb 0.00 in0.0 mm 0.00 in0.0 mm 2.07 in52.6 mm
08:50 PM 63.4°F17.4°C 61.3°F16.3°C 93% 3.0 mph ENE4.8 kmh ENE 8.0 mph12.9 kmh 30.15 in1021.0 mb 0.00 in0.0 mm 0.00 in0.0 mm 2.07 in52.6 mm
08:52 PM 63.4°F17.4°C 61.3°F16.3°C 93% 3.0 mph ENE4.8 kmh ENE 8.0 mph12.9 kmh 30.15 in1021.0 mb 0.00 in0.0 mm 0.00 in0.0 mm 2.07 in52.6 mm
08:54 PM 63.3°F17.4°C 61.2°F16.2°C 93% 3.0 mph ENE4.8 kmh ENE 8.0 mph12.9 kmh 30.15 in1021.0 mb 0.00 in0.0 mm 0.00 in0.0 mm 2.07 in52.6 mm
08:56 PM 63.3°F17.4°C 61.5°F16.4°C 94% 3.0 mph ENE4.8 kmh ENE 8.0 mph12.9 kmh 30.15 in1021.0 mb 0.00 in0.0 mm 0.00 in0.0 mm 2.07 in52.6 mm
08:58 PM 63.3°F17.4°C 61.5°F16.4°C 94% 2.0 mph ENE3.2 kmh ENE 8.0 mph12.9 kmh 30.15 in1021.0 mb 0.00 in0.0 mm 0.00 in0.0 mm 2.07 in52.6 mm
09:00 PM 63.2°F17.3°C 61.4°F16.3°C 94% 3.0 mph E4.8 kmh E 8.0 mph12.9 kmh 30.15 in1021.0 mb 0.00 in0.0 mm 0.00 in0.0 mm 2.07 in52.6 mm
09:02 PM 63.2°F17.3°C 61.4°F16.3°C 94% 3.0 mph ENE4.8 kmh ENE 7.0 mph11.3 kmh 30.15 in1021.0 mb 0.00 in0.0 mm 0.00 in0.0 mm 2.07 in52.6 mm
09:04 PM 63.2°F17.3°C 61.4°F16.3°C 94% 3.0 mph E4.8 kmh E 7.0 mph11.3 kmh 30.15 in1021.0 mb 0.00 in0.0 mm 0.00 in0.0 mm 2.07 in52.6 mm
09:06 PM 63.2°F17.3°C 61.4°F16.3°C 94% 3.0 mph E4.8 kmh E 7.0 mph11.3 kmh 30.15 in1021.0 mb 0.00 in0.0 mm 0.00 in0.0 mm 2.07 in52.6 mm
09:08 PM 63.2°F17.3°C 61.4°F16.3°C 94% 3.0 mph E4.8 kmh E 7.0 mph11.3 kmh 30.15 in1021.0 mb 0.00 in0.0 mm 0.00 in0.0 mm 2.07 in52.6 mm
09:10 PM 63.2°F17.3°C 61.4°F16.3°C 94% 3.0 mph ENE4.8 kmh ENE 8.0 mph12.9 kmh 30.15 in1021.0 mb 0.00 in0.0 mm 0.00 in0.0 mm 2.07 in52.6 mm
09:12 PM 63.1°F17.3°C 61.3°F16.3°C 94% 3.0 mph ENE4.8 kmh ENE 8.0 mph12.9 kmh 30.15 in1021.0 mb 0.00 in0.0 mm 0.00 in0.0 mm 2.07 in52.6 mm
09:14 PM 63.1°F17.3°C 61.3°F16.3°C 94% 3.0 mph ENE4.8 kmh ENE 8.0 mph12.9 kmh 30.15 in1021.0 mb 0.00 in0.0 mm 0.00 in0.0 mm 2.07 in52.6 mm
09:16 PM 63.1°F17.3°C 61.3°F16.3°C 94% 2.0 mph ENE3.2 kmh ENE 8.0 mph12.9 kmh 30.15 in1021.0 mb 0.00 in0.0 mm 0.00 in0.0 mm 2.07 in52.6 mm
09:18 PM 63.1°F17.3°C 61.3°F16.3°C 94% 2.0 mph NE3.2 kmh NE 8.0 mph12.9 kmh 30.15 in1021.0 mb 0.00 in0.0 mm 0.00 in0.0 mm 2.07 in52.6 mm
09:20 PM 63.1°F17.3°C 61.3°F16.3°C 94% 2.0 mph ENE3.2 kmh ENE 6.0 mph9.7 kmh 30.15 in1021.0 mb 0.00 in0.0 mm 0.00 in0.0 mm 2.07 in52.6 mm
09:22 PM 63.1°F17.3°C 61.3°F16.3°C 94% 2.0 mph ENE3.2 kmh ENE 6.0 mph9.7 kmh 30.15 in1021.0 mb 0.00 in0.0 mm 0.00 in0.0 mm 2.07 in52.6 mm
09:24 PM 63.1°F17.3°C 61.3°F16.3°C 94% 2.0 mph ENE3.2 kmh ENE 6.0 mph9.7 kmh 30.15 in1021.0 mb 0.00 in0.0 mm 0.00 in0.0 mm 2.07 in52.6 mm
09:26 PM 63.1°F17.3°C 61.3°F16.3°C 94% 2.0 mph E3.2 kmh E 6.0 mph9.7 kmh 30.15 in1021.0 mb 0.00 in0.0 mm 0.00 in0.0 mm 2.07 in52.6 mm
09:28 PM 63.1°F17.3°C 61.3°F16.3°C 94% 2.0 mph E3.2 kmh E 5.0 mph8.0 kmh 30.15 in1021.0 mb 0.00 in0.0 mm 0.00 in0.0 mm 2.07 in52.6 mm
09:30 PM 63.1°F17.3°C 61.3°F16.3°C 94% 2.0 mph E3.2 kmh E 5.0 mph8.0 kmh 30.14 in1020.7 mb 0.00 in0.0 mm 0.00 in0.0 mm 2.07 in52.6 mm
09:32 PM 63.1°F17.3°C 61.3°F16.3°C 94% 2.0 mph E3.2 kmh E 5.0 mph8.0 kmh 30.14 in1020.7 mb 0.00 in0.0 mm 0.00 in0.0 mm 2.07 in52.6 mm
09:34 PM 63.1°F17.3°C 61.3°F16.3°C 94% 2.0 mph E3.2 kmh E 5.0 mph8.0 kmh 30.14 in1020.7 mb 0.00 in0.0 mm 0.00 in0.0 mm 2.07 in52.6 mm
09:36 PM 63.1°F17.3°C 61.3°F16.3°C 94% 2.0 mph E3.2 kmh E 5.0 mph8.0 kmh 30.14 in1020.7 mb 0.00 in0.0 mm 0.00 in0.0 mm 2.07 in52.6 mm
09:38 PM 63.1°F17.3°C 61.3°F16.3°C 94% 3.0 mph E4.8 kmh E 5.0 mph8.0 kmh 30.15 in1021.0 mb 0.00 in0.0 mm 0.00 in0.0 mm 2.07 in52.6 mm
09:40 PM 63.0°F17.2°C 61.2°F16.2°C 94% 3.0 mph ENE4.8 kmh ENE 8.0 mph12.9 kmh 30.15 in1021.0 mb 0.00 in0.0 mm 0.00 in0.0 mm 2.07 in52.6 mm
09:42 PM 63.1°F17.3°C 61.3°F16.3°C 94% 3.0 mph ENE4.8 kmh ENE 8.0 mph12.9 kmh 30.15 in1021.0 mb 0.00 in0.0 mm 0.00 in0.0 mm 2.07 in52.6 mm
09:44 PM 63.1°F17.3°C 61.3°F16.3°C 94% 3.0 mph ENE4.8 kmh ENE 8.0 mph12.9 kmh 30.15 in1021.0 mb 0.00 in0.0 mm 0.00 in0.0 mm 2.07 in52.6 mm
09:46 PM 63.1°F17.3°C 61.3°F16.3°C 94% 3.0 mph ENE4.8 kmh ENE 8.0 mph12.9 kmh 30.14 in1020.7 mb 0.00 in0.0 mm 0.00 in0.0 mm 2.07 in52.6 mm
09:48 PM 63.1°F17.3°C 61.3°F16.3°C 94% 3.0 mph ENE4.8 kmh ENE 8.0 mph12.9 kmh 30.15 in1021.0 mb 0.00 in0.0 mm 0.00 in0.0 mm 2.07 in52.6 mm
09:50 PM 63.1°F17.3°C 61.3°F16.3°C 94% 3.0 mph ENE4.8 kmh ENE 7.0 mph11.3 kmh 30.14 in1020.7 mb 0.00 in0.0 mm 0.00 in0.0 mm 2.07 in52.6 mm
09:52 PM 63.1°F17.3°C 61.3°F16.3°C 94% 3.0 mph ENE4.8 kmh ENE 7.0 mph11.3 kmh 30.14 in1020.7 mb 0.00 in0.0 mm 0.00 in0.0 mm 2.07 in52.6 mm
09:54 PM 63.1°F17.3°C 61.3°F16.3°C 94% 3.0 mph ENE4.8 kmh ENE 7.0 mph11.3 kmh 30.14 in1020.7 mb 0.00 in0.0 mm 0.00 in0.0 mm 2.07 in52.6 mm
09:56 PM 63.1°F17.3°C 61.3°F16.3°C 94% 3.0 mph ENE4.8 kmh ENE 7.0 mph11.3 kmh 30.14 in1020.7 mb 0.00 in0.0 mm 0.00 in0.0 mm 2.07 in52.6 mm
09:58 PM 63.1°F17.3°C 61.3°F16.3°C 94% 3.0 mph ENE4.8 kmh ENE 8.0 mph12.9 kmh 30.14 in1020.7 mb 0.00 in0.0 mm 0.00 in0.0 mm 2.07 in52.6 mm
10:00 PM 63.1°F17.3°C 61.3°F16.3°C 94% 3.0 mph ENE4.8 kmh ENE 8.0 mph12.9 kmh 30.14 in1020.7 mb 0.00 in0.0 mm 0.00 in0.0 mm 2.07 in52.6 mm
10:02 PM 63.1°F17.3°C 61.3°F16.3°C 94% 3.0 mph E4.8 kmh E 8.0 mph12.9 kmh 30.14 in1020.7 mb 0.00 in0.0 mm 0.00 in0.0 mm 2.07 in52.6 mm
10:04 PM 63.1°F17.3°C 61.3°F16.3°C 94% 3.0 mph E4.8 kmh E 8.0 mph12.9 kmh 30.14 in1020.7 mb 0.00 in0.0 mm 0.00 in0.0 mm 2.07 in52.6 mm
10:06 PM 63.1°F17.3°C 61.3°F16.3°C 94% 3.0 mph E4.8 kmh E 8.0 mph12.9 kmh 30.14 in1020.7 mb 0.00 in0.0 mm 0.00 in0.0 mm 2.07 in52.6 mm
10:08 PM 63.1°F17.3°C 61.3°F16.3°C 94% 3.0 mph E4.8 kmh E 7.0 mph11.3 kmh 30.14 in1020.7 mb 0.00 in0.0 mm 0.00 in0.0 mm 2.07 in52.6 mm
10:10 PM 63.1°F17.3°C 61.3°F16.3°C 94% 3.0 mph E4.8 kmh E 7.0 mph11.3 kmh 30.14 in1020.7 mb 0.00 in0.0 mm 0.00 in0.0 mm 2.07 in52.6 mm
10:12 PM 63.1°F17.3°C 61.3°F16.3°C 94% 3.0 mph ENE4.8 kmh ENE 7.0 mph11.3 kmh 30.14 in1020.7 mb 0.00 in0.0 mm 0.00 in0.0 mm 2.07 in52.6 mm
10:14 PM 63.1°F17.3°C 61.3°F16.3°C 94% 3.0 mph ENE4.8 kmh ENE 7.0 mph11.3 kmh 30.14 in1020.7 mb 0.00 in0.0 mm 0.00 in0.0 mm 2.07 in52.6 mm
10:16 PM 63.1°F17.3°C 61.3°F16.3°C 94% 3.0 mph ENE4.8 kmh ENE 7.0 mph11.3 kmh 30.14 in1020.7 mb 0.00 in0.0 mm 0.00 in0.0 mm 2.07 in52.6 mm
10:18 PM 63.1°F17.3°C 61.3°F16.3°C 94% 3.0 mph ENE4.8 kmh ENE 6.0 mph9.7 kmh 30.14 in1020.7 mb 0.00 in0.0 mm 0.00 in0.0 mm 2.07 in52.6 mm
10:20 PM 63.1°F17.3°C 61.3°F16.3°C 94% 2.0 mph ENE3.2 kmh ENE 6.0 mph9.7 kmh 30.14 in1020.7 mb 0.00 in0.0 mm 0.00 in0.0 mm 2.07 in52.6 mm
10:22 PM 63.1°F17.3°C 61.3°F16.3°C 94% 2.0 mph E3.2 kmh E 6.0 mph9.7 kmh 30.14 in1020.7 mb 0.00 in0.0 mm 0.00 in0.0 mm 2.07 in52.6 mm
10:24 PM 63.1°F17.3°C 61.3°F16.3°C 94% 2.0 mph ENE3.2 kmh ENE 6.0 mph9.7 kmh 30.14 in1020.7 mb 0.00 in0.0 mm 0.00 in0.0 mm 2.07 in52.6 mm
10:26 PM 63.1°F17.3°C 61.3°F16.3°C 94% 2.0 mph ENE3.2 kmh ENE 6.0 mph9.7 kmh 30.14 in1020.7 mb 0.00 in0.0 mm 0.00 in0.0 mm 2.07 in52.6 mm
10:28 PM 63.1°F17.3°C 61.3°F16.3°C 94% 3.0 mph ENE4.8 kmh ENE 7.0 mph11.3 kmh 30.14 in1020.7 mb 0.00 in0.0 mm 0.00 in0.0 mm 2.07 in52.6 mm
10:30 PM 63.1°F17.3°C 61.3°F16.3°C 94% 3.0 mph ENE4.8 kmh ENE 7.0 mph11.3 kmh 30.14 in1020.7 mb 0.00 in0.0 mm 0.00 in0.0 mm 2.07 in52.6 mm
10:32 PM 63.1°F17.3°C 61.3°F16.3°C 94% 3.0 mph ENE4.8 kmh ENE 7.0 mph11.3 kmh 30.14 in1020.7 mb 0.00 in0.0 mm 0.00 in0.0 mm 2.07 in52.6 mm
10:34 PM 63.1°F17.3°C 61.3°F16.3°C 94% 3.0 mph ENE4.8 kmh ENE 7.0 mph11.3 kmh 30.14 in1020.7 mb 0.00 in0.0 mm 0.00 in0.0 mm 2.07 in52.6 mm
10:36 PM 63.1°F17.3°C 61.3°F16.3°C 94% 3.0 mph ENE4.8 kmh ENE 10.0 mph16.1 kmh 30.14 in1020.7 mb 0.00 in0.0 mm 0.00 in0.0 mm 2.07 in52.6 mm
10:38 PM 63.1°F17.3°C 61.3°F16.3°C 94% 3.0 mph ENE4.8 kmh ENE 10.0 mph16.1 kmh 30.14 in1020.7 mb 0.00 in0.0 mm 0.00 in0.0 mm 2.07 in52.6 mm
10:40 PM 63.1°F17.3°C 61.3°F16.3°C 94% 3.0 mph ENE4.8 kmh ENE 10.0 mph16.1 kmh 30.14 in1020.7 mb 0.00 in0.0 mm 0.00 in0.0 mm 2.07 in52.6 mm
10:42 PM 63.1°F17.3°C 61.3°F16.3°C 94% 3.0 mph ENE4.8 kmh ENE 10.0 mph16.1 kmh 30.14 in1020.7 mb 0.00 in0.0 mm 0.00 in0.0 mm 2.07 in52.6 mm
10:44 PM 63.1°F17.3°C 61.3°F16.3°C 94% 3.0 mph ENE4.8 kmh ENE 10.0 mph16.1 kmh 30.14 in1020.7 mb 0.00 in0.0 mm 0.00 in0.0 mm 2.07 in52.6 mm
10:46 PM 63.1°F17.3°C 61.3°F16.3°C 94% 3.0 mph ENE4.8 kmh ENE 9.0 mph14.5 kmh 30.14 in1020.7 mb 0.00 in0.0 mm 0.00 in0.0 mm 2.07 in52.6 mm
10:48 PM 63.1°F17.3°C 61.3°F16.3°C 94% 3.0 mph ENE4.8 kmh ENE 8.0 mph12.9 kmh 30.14 in1020.7 mb 0.00 in0.0 mm 0.00 in0.0 mm 2.07 in52.6 mm
10:50 PM 63.1°F17.3°C 61.3°F16.3°C 94% 3.0 mph ENE4.8 kmh ENE 7.0 mph11.3 kmh 30.13 in1020.3 mb 0.00 in0.0 mm 0.00 in0.0 mm 2.07 in52.6 mm
10:52 PM 63.1°F17.3°C 61.3°F16.3°C 94% 3.0 mph ENE4.8 kmh ENE 7.0 mph11.3 kmh 30.14 in1020.7 mb 0.00 in0.0 mm 0.00 in0.0 mm 2.07 in52.6 mm
10:54 PM 63.1°F17.3°C 61.3°F16.3°C 94% 3.0 mph ENE4.8 kmh ENE 7.0 mph11.3 kmh 30.14 in1020.7 mb 0.00 in0.0 mm 0.00 in0.0 mm 2.07 in52.6 mm
10:56 PM 63.1°F17.3°C 61.3°F16.3°C 94% 3.0 mph ENE4.8 kmh ENE 7.0 mph11.3 kmh 30.14 in1020.7 mb 0.00 in0.0 mm 0.00 in0.0 mm 2.07 in52.6 mm
10:58 PM 63.1°F17.3°C 61.3°F16.3°C 94% 3.0 mph ENE4.8 kmh ENE 7.0 mph11.3 kmh 30.14 in1020.7 mb 0.00 in0.0 mm 0.00 in0.0 mm 2.07 in52.6 mm
11:00 PM 63.1°F17.3°C 61.3°F16.3°C 94% 2.0 mph ENE3.2 kmh ENE 6.0 mph9.7 kmh 30.14 in1020.7 mb 0.00 in0.0 mm 0.00 in0.0 mm 0.00 in0.0 mm
11:02 PM 63.1°F17.3°C 61.3°F16.3°C 94% 2.0 mph ENE3.2 kmh ENE 6.0 mph9.7 kmh 30.14 in1020.7 mb 0.00 in0.0 mm 0.00 in0.0 mm 0.00 in0.0 mm
11:04 PM 63.1°F17.3°C 61.3°F16.3°C 94% 2.0 mph ENE3.2 kmh ENE 8.0 mph12.9 kmh 30.14 in1020.7 mb 0.00 in0.0 mm 0.00 in0.0 mm 0.00 in0.0 mm
11:06 PM 63.1°F17.3°C 61.3°F16.3°C 94% 3.0 mph ENE4.8 kmh ENE 8.0 mph12.9 kmh 30.14 in1020.7 mb 0.00 in0.0 mm 0.00 in0.0 mm 0.00 in0.0 mm
11:08 PM 63.1°F17.3°C 61.3°F16.3°C 94% 3.0 mph ENE4.8 kmh ENE 8.0 mph12.9 kmh 30.13 in1020.3 mb 0.00 in0.0 mm 0.00 in0.0 mm 0.00 in0.0 mm
11:10 PM 63.1°F17.3°C 61.3°F16.3°C 94% 2.0 mph ENE3.2 kmh ENE 8.0 mph12.9 kmh 30.13 in1020.3 mb 0.00 in0.0 mm 0.00 in0.0 mm 0.00 in0.0 mm
11:12 PM 63.2°F17.3°C 61.4°F16.3°C 94% 3.0 mph ENE4.8 kmh ENE 8.0 mph12.9 kmh 30.13 in1020.3 mb 0.00 in0.0 mm 0.00 in0.0 mm 0.00 in0.0 mm
11:14 PM 63.2°F17.3°C 61.4°F16.3°C 94% 2.0 mph ENE3.2 kmh ENE 8.0 mph12.9 kmh 30.13 in1020.3 mb 0.00 in0.0 mm 0.00 in0.0 mm 0.00 in0.0 mm
11:16 PM 63.2°F17.3°C 61.4°F16.3°C 94% 3.0 mph ENE4.8 kmh ENE 8.0 mph12.9 kmh 30.13 in1020.3 mb 0.00 in0.0 mm 0.00 in0.0 mm 0.00 in0.0 mm
11:18 PM 63.2°F17.3°C 61.4°F16.3°C 94% 3.0 mph ENE4.8 kmh ENE 8.0 mph12.9 kmh 30.13 in1020.3 mb 0.00 in0.0 mm 0.00 in0.0 mm 0.00 in0.0 mm
11:20 PM 63.2°F17.3°C 61.4°F16.3°C 94% 3.0 mph ENE4.8 kmh ENE 8.0 mph12.9 kmh 30.13 in1020.3 mb 0.00 in0.0 mm 0.00 in0.0 mm 0.00 in0.0 mm
11:22 PM 63.2°F17.3°C 61.4°F16.3°C 94% 3.0 mph ENE4.8 kmh ENE 8.0 mph12.9 kmh 30.13 in1020.3 mb 0.00 in0.0 mm 0.00 in0.0 mm 0.00 in0.0 mm
11:24 PM 63.2°F17.3°C 61.4°F16.3°C 94% 4.0 mph ENE6.4 kmh ENE 8.0 mph12.9 kmh 30.13 in1020.3 mb 0.00 in0.0 mm 0.00 in0.0 mm 0.00 in0.0 mm
11:26 PM 63.3°F17.4°C 61.5°F16.4°C 94% 4.0 mph ENE6.4 kmh ENE 9.0 mph14.5 kmh 30.13 in1020.3 mb 0.00 in0.0 mm 0.00 in0.0 mm 0.00 in0.0 mm
11:28 PM 63.3°F17.4°C 61.5°F16.4°C 94% 4.0 mph ENE6.4 kmh ENE 9.0 mph14.5 kmh 30.13 in1020.3 mb 0.00 in0.0 mm 0.00 in0.0 mm 0.00 in0.0 mm
11:30 PM 63.3°F17.4°C 61.5°F16.4°C 94% 4.0 mph ENE6.4 kmh ENE 9.0 mph14.5 kmh 30.13 in1020.3 mb 0.00 in0.0 mm 0.00 in0.0 mm 0.00 in0.0 mm
11:32 PM 63.3°F17.4°C 61.5°F16.4°C 94% 4.0 mph ENE6.4 kmh ENE 9.0 mph14.5 kmh 30.13 in1020.3 mb 0.00 in0.0 mm 0.00 in0.0 mm 0.00 in0.0 mm
11:34 PM 63.4°F17.4°C 61.6°F16.4°C 94% 4.0 mph ENE6.4 kmh ENE 9.0 mph14.5 kmh 30.13 in1020.3 mb 0.00 in0.0 mm 0.00 in0.0 mm 0.00 in0.0 mm
11:36 PM 63.4°F17.4°C 61.6°F16.4°C 94% 4.0 mph ENE6.4 kmh ENE 7.0 mph11.3 kmh 30.12 in1020.0 mb 0.00 in0.0 mm 0.00 in0.0 mm 0.00 in0.0 mm
11:38 PM 63.4°F17.4°C 61.6°F16.4°C 94% 3.0 mph ENE4.8 kmh ENE 7.0 mph11.3 kmh 30.12 in1020.0 mb 0.00 in0.0 mm 0.00 in0.0 mm 0.00 in0.0 mm
11:40 PM 63.4°F17.4°C 61.6°F16.4°C 94% 3.0 mph ENE4.8 kmh ENE 7.0 mph11.3 kmh 30.12 in1020.0 mb 0.00 in0.0 mm 0.00 in0.0 mm 0.00 in0.0 mm
11:42 PM 63.4°F17.4°C 61.6°F16.4°C 94% 3.0 mph ENE4.8 kmh ENE 8.0 mph12.9 kmh 30.12 in1020.0 mb 0.00 in0.0 mm 0.00 in0.0 mm 0.00 in0.0 mm
11:44 PM 63.4°F17.4°C 61.6°F16.4°C 94% 3.0 mph ENE4.8 kmh ENE 8.0 mph12.9 kmh 30.12 in1020.0 mb 0.00 in0.0 mm 0.00 in0.0 mm 0.00 in0.0 mm
11:46 PM 63.4°F17.4°C 61.6°F16.4°C 94% 3.0 mph ENE4.8 kmh ENE 8.0 mph12.9 kmh 30.12 in1020.0 mb 0.00 in0.0 mm 0.00 in0.0 mm 0.00 in0.0 mm
11:48 PM 63.4°F17.4°C 61.6°F16.4°C 94% 3.0 mph ENE4.8 kmh ENE 8.0 mph12.9 kmh 30.12 in1020.0 mb 0.00 in0.0 mm 0.00 in0.0 mm 0.00 in0.0 mm
11:50 PM 63.4°F17.4°C 61.6°F16.4°C 94% 3.0 mph ENE4.8 kmh ENE 8.0 mph12.9 kmh 30.11 in1019.6 mb 0.00 in0.0 mm 0.00 in0.0 mm 0.00 in0.0 mm
11:52 PM 63.4°F17.4°C 61.6°F16.4°C 94% 3.0 mph ENE4.8 kmh ENE 10.0 mph16.1 kmh 30.11 in1019.6 mb 0.00 in0.0 mm 0.00 in0.0 mm 0.00 in0.0 mm
11:54 PM 63.4°F17.4°C 61.6°F16.4°C 94% 3.0 mph ENE4.8 kmh ENE 10.0 mph16.1 kmh 30.11 in1019.6 mb 0.00 in0.0 mm 0.00 in0.0 mm 0.00 in0.0 mm
11:56 PM 63.4°F17.4°C 61.6°F16.4°C 94% 4.0 mph ENE6.4 kmh ENE 12.0 mph19.3 kmh 30.11 in1019.6 mb 0.00 in0.0 mm 0.00 in0.0 mm 0.00 in0.0 mm
11:58 PM 63.4°F17.4°C 61.6°F16.4°C 94% 4.0 mph ENE6.4 kmh ENE 12.0 mph19.3 kmh 30.12 in1020.0 mb 0.00 in0.0 mm 0.00 in0.0 mm 0.00 in0.0 mm